<?xml version="1.0" encoding="UTF-8" standalone="no" ?>
<gpx xmlns="http://www.topografix.com/GPX/1/1" xmlns:xsi="http://www.w3.org/2001/XMLSchema-instance" xsi:schemaLocation="http://www.topografix.com/GPX/1/1 http://www.topografix.com/GPX/1/1/gpx.xsd" version="1.1" creator="VisuGPX - https://www.visugpx.com">
  <metadata>
    <name>64 - VTT - Monein - boucle de Monein Lahourcade Mourenx Noguère Pardies Abos</name>
    <desc><![CDATA[Soleil chaleur préparation pour la rando de Monein]]></desc>
  </metadata>
  <trk>
    <name><![CDATA[ACTIVE LOG]]></name>
    <trkseg>
      <trkpt lat="43.31569" lon="-0.58645">
        <ele>197.20752</ele>
        <time>2014-09-01T13:41:05Z</time>
      </trkpt>
      <trkpt lat="43.31569" lon="-0.58645">
        <ele>197.20752</ele>
        <time>2014-09-01T13:41:07Z</time>
      </trkpt>
      <trkpt lat="43.31572" lon="-0.58645">
        <ele>198.168945</ele>
        <time>2014-09-01T13:41:34Z</time>
      </trkpt>
      <trkpt lat="43.31576" lon="-0.58648">
        <ele>198.168945</ele>
        <time>2014-09-01T13:41:42Z</time>
      </trkpt>
      <trkpt lat="43.31582" lon="-0.58636">
        <ele>199.130127</ele>
        <time>2014-09-01T13:41:47Z</time>
      </trkpt>
      <trkpt lat="43.31588" lon="-0.586">
        <ele>196.726929</ele>
        <time>2014-09-01T13:41:52Z</time>
      </trkpt>
      <trkpt lat="43.31581" lon="-0.58543">
        <ele>192.881714</ele>
        <time>2014-09-01T13:42:01Z</time>
      </trkpt>
      <trkpt lat="43.31578" lon="-0.5854">
        <ele>192.401123</ele>
        <time>2014-09-01T13:42:02Z</time>
      </trkpt>
      <trkpt lat="43.31559" lon="-0.58541">
        <ele>194.804321</ele>
        <time>2014-09-01T13:42:12Z</time>
      </trkpt>
      <trkpt lat="43.3153" lon="-0.5854">
        <ele>198.168945</ele>
        <time>2014-09-01T13:42:26Z</time>
      </trkpt>
      <trkpt lat="43.31497" lon="-0.58544">
        <ele>201.533569</ele>
        <time>2014-09-01T13:42:42Z</time>
      </trkpt>
      <trkpt lat="43.31492" lon="-0.58545">
        <ele>202.014282</ele>
        <time>2014-09-01T13:42:44Z</time>
      </trkpt>
      <trkpt lat="43.31458" lon="-0.5857">
        <ele>204.898071</ele>
        <time>2014-09-01T13:43:01Z</time>
      </trkpt>
      <trkpt lat="43.31422" lon="-0.58599">
        <ele>207.301392</ele>
        <time>2014-09-01T13:43:19Z</time>
      </trkpt>
      <trkpt lat="43.31395" lon="-0.58605">
        <ele>210.185425</ele>
        <time>2014-09-01T13:43:29Z</time>
      </trkpt>
      <trkpt lat="43.31338" lon="-0.58603">
        <ele>209.704834</ele>
        <time>2014-09-01T13:43:44Z</time>
      </trkpt>
      <trkpt lat="43.31319" lon="-0.58599">
        <ele>209.704834</ele>
        <time>2014-09-01T13:43:48Z</time>
      </trkpt>
      <trkpt lat="43.31302" lon="-0.5859">
        <ele>210.185425</ele>
        <time>2014-09-01T13:43:52Z</time>
      </trkpt>
      <trkpt lat="43.31281" lon="-0.58585">
        <ele>210.185425</ele>
        <time>2014-09-01T13:43:57Z</time>
      </trkpt>
      <trkpt lat="43.31227" lon="-0.58568">
        <ele>211.627441</ele>
        <time>2014-09-01T13:44:12Z</time>
      </trkpt>
      <trkpt lat="43.31183" lon="-0.58555">
        <ele>214.991943</ele>
        <time>2014-09-01T13:44:26Z</time>
      </trkpt>
      <trkpt lat="43.3117" lon="-0.5855">
        <ele>214.51123</ele>
        <time>2014-09-01T13:44:30Z</time>
      </trkpt>
      <trkpt lat="43.31149" lon="-0.58553">
        <ele>214.51123</ele>
        <time>2014-09-01T13:44:35Z</time>
      </trkpt>
      <trkpt lat="43.31112" lon="-0.58564">
        <ele>217.395386</ele>
        <time>2014-09-01T13:44:48Z</time>
      </trkpt>
      <trkpt lat="43.31077" lon="-0.58572">
        <ele>218.83728</ele>
        <time>2014-09-01T13:44:59Z</time>
      </trkpt>
      <trkpt lat="43.31079" lon="-0.58584">
        <ele>220.759888</ele>
        <time>2014-09-01T13:45:04Z</time>
      </trkpt>
      <trkpt lat="43.31119" lon="-0.5861">
        <ele>224.124512</ele>
        <time>2014-09-01T13:45:22Z</time>
      </trkpt>
      <trkpt lat="43.31148" lon="-0.58635">
        <ele>227.969727</ele>
        <time>2014-09-01T13:45:36Z</time>
      </trkpt>
      <trkpt lat="43.31151" lon="-0.58637">
        <ele>227.969727</ele>
        <time>2014-09-01T13:45:37Z</time>
      </trkpt>
      <trkpt lat="43.31188" lon="-0.58659">
        <ele>230.85376</ele>
        <time>2014-09-01T13:45:53Z</time>
      </trkpt>
      <trkpt lat="43.31238" lon="-0.58688">
        <ele>231.814941</ele>
        <time>2014-09-01T13:46:12Z</time>
      </trkpt>
      <trkpt lat="43.31295" lon="-0.58734">
        <ele>234.699097</ele>
        <time>2014-09-01T13:46:30Z</time>
      </trkpt>
      <trkpt lat="43.31348" lon="-0.58791">
        <ele>234.218384</ele>
        <time>2014-09-01T13:46:46Z</time>
      </trkpt>
      <trkpt lat="43.3142" lon="-0.58855">
        <ele>232.295776</ele>
        <time>2014-09-01T13:47:03Z</time>
      </trkpt>
      <trkpt lat="43.31486" lon="-0.58947">
        <ele>228.931152</ele>
        <time>2014-09-01T13:47:17Z</time>
      </trkpt>
      <trkpt lat="43.31491" lon="-0.58955">
        <ele>228.931152</ele>
        <time>2014-09-01T13:47:18Z</time>
      </trkpt>
      <trkpt lat="43.31566" lon="-0.59027">
        <ele>226.527832</ele>
        <time>2014-09-01T13:47:31Z</time>
      </trkpt>
      <trkpt lat="43.31628" lon="-0.59088">
        <ele>228.450439</ele>
        <time>2014-09-01T13:47:45Z</time>
      </trkpt>
      <trkpt lat="43.31686" lon="-0.59119">
        <ele>230.373047</ele>
        <time>2014-09-01T13:48:01Z</time>
      </trkpt>
      <trkpt lat="43.31724" lon="-0.59116">
        <ele>233.737671</ele>
        <time>2014-09-01T13:48:12Z</time>
      </trkpt>
      <trkpt lat="43.31759" lon="-0.59097">
        <ele>237.102295</ele>
        <time>2014-09-01T13:48:25Z</time>
      </trkpt>
      <trkpt lat="43.31771" lon="-0.5909">
        <ele>238.544312</ele>
        <time>2014-09-01T13:48:30Z</time>
      </trkpt>
      <trkpt lat="43.31818" lon="-0.59078">
        <ele>238.544312</ele>
        <time>2014-09-01T13:48:45Z</time>
      </trkpt>
      <trkpt lat="43.31852" lon="-0.59077">
        <ele>234.699097</ele>
        <time>2014-09-01T13:48:50Z</time>
      </trkpt>
      <trkpt lat="43.31881" lon="-0.5908">
        <ele>231.814941</ele>
        <time>2014-09-01T13:48:53Z</time>
      </trkpt>
      <trkpt lat="43.3189" lon="-0.59081">
        <ele>228.450439</ele>
        <time>2014-09-01T13:48:54Z</time>
      </trkpt>
      <trkpt lat="43.31899" lon="-0.59082">
        <ele>228.450439</ele>
        <time>2014-09-01T13:48:55Z</time>
      </trkpt>
      <trkpt lat="43.31907" lon="-0.59083">
        <ele>225.566528</ele>
        <time>2014-09-01T13:48:56Z</time>
      </trkpt>
      <trkpt lat="43.31914" lon="-0.59083">
        <ele>223.643799</ele>
        <time>2014-09-01T13:48:57Z</time>
      </trkpt>
      <trkpt lat="43.31933" lon="-0.59072">
        <ele>223.163208</ele>
        <time>2014-09-01T13:49:02Z</time>
      </trkpt>
      <trkpt lat="43.31977" lon="-0.58996">
        <ele>223.643799</ele>
        <time>2014-09-01T13:49:17Z</time>
      </trkpt>
      <trkpt lat="43.31983" lon="-0.58985">
        <ele>224.124512</ele>
        <time>2014-09-01T13:49:19Z</time>
      </trkpt>
      <trkpt lat="43.32017" lon="-0.58961">
        <ele>226.527832</ele>
        <time>2014-09-01T13:49:30Z</time>
      </trkpt>
      <trkpt lat="43.32045" lon="-0.58957">
        <ele>229.892334</ele>
        <time>2014-09-01T13:49:43Z</time>
      </trkpt>
      <trkpt lat="43.32058" lon="-0.58958">
        <ele>233.25708</ele>
        <time>2014-09-01T13:49:50Z</time>
      </trkpt>
      <trkpt lat="43.3206" lon="-0.58958">
        <ele>233.25708</ele>
        <time>2014-09-01T13:49:51Z</time>
      </trkpt>
      <trkpt lat="43.32067" lon="-0.58959">
        <ele>234.699097</ele>
        <time>2014-09-01T13:49:55Z</time>
      </trkpt>
      <trkpt lat="43.32098" lon="-0.58982">
        <ele>237.582886</ele>
        <time>2014-09-01T13:50:11Z</time>
      </trkpt>
      <trkpt lat="43.32108" lon="-0.58999">
        <ele>237.102295</ele>
        <time>2014-09-01T13:50:15Z</time>
      </trkpt>
      <trkpt lat="43.32123" lon="-0.59024">
        <ele>234.699097</ele>
        <time>2014-09-01T13:50:19Z</time>
      </trkpt>
      <trkpt lat="43.32157" lon="-0.5905">
        <ele>231.814941</ele>
        <time>2014-09-01T13:50:25Z</time>
      </trkpt>
      <trkpt lat="43.32176" lon="-0.59061">
        <ele>231.334351</ele>
        <time>2014-09-01T13:50:29Z</time>
      </trkpt>
      <trkpt lat="43.32185" lon="-0.59068">
        <ele>231.334351</ele>
        <time>2014-09-01T13:50:31Z</time>
      </trkpt>
      <trkpt lat="43.32253" lon="-0.59108">
        <ele>233.737671</ele>
        <time>2014-09-01T13:50:51Z</time>
      </trkpt>
      <trkpt lat="43.3228" lon="-0.59108">
        <ele>237.102295</ele>
        <time>2014-09-01T13:51:03Z</time>
      </trkpt>
      <trkpt lat="43.32303" lon="-0.59121">
        <ele>240.467041</ele>
        <time>2014-09-01T13:51:15Z</time>
      </trkpt>
      <trkpt lat="43.32321" lon="-0.59169">
        <ele>241.908936</ele>
        <time>2014-09-01T13:51:29Z</time>
      </trkpt>
      <trkpt lat="43.32346" lon="-0.592">
        <ele>244.792847</ele>
        <time>2014-09-01T13:51:39Z</time>
      </trkpt>
      <trkpt lat="43.32381" lon="-0.59199">
        <ele>245.75415</ele>
        <time>2014-09-01T13:51:52Z</time>
      </trkpt>
      <trkpt lat="43.32389" lon="-0.59189">
        <ele>245.75415</ele>
        <time>2014-09-01T13:51:55Z</time>
      </trkpt>
      <trkpt lat="43.32403" lon="-0.59154">
        <ele>245.273438</ele>
        <time>2014-09-01T13:52:00Z</time>
      </trkpt>
      <trkpt lat="43.3241" lon="-0.59112">
        <ele>242.389648</ele>
        <time>2014-09-01T13:52:05Z</time>
      </trkpt>
      <trkpt lat="43.32415" lon="-0.59089">
        <ele>241.908936</ele>
        <time>2014-09-01T13:52:08Z</time>
      </trkpt>
      <trkpt lat="43.32425" lon="-0.59072">
        <ele>240.947632</ele>
        <time>2014-09-01T13:52:11Z</time>
      </trkpt>
      <trkpt lat="43.32466" lon="-0.59008">
        <ele>236.621704</ele>
        <time>2014-09-01T13:52:19Z</time>
      </trkpt>
      <trkpt lat="43.32474" lon="-0.58997">
        <ele>236.140991</ele>
        <time>2014-09-01T13:52:21Z</time>
      </trkpt>
      <trkpt lat="43.32484" lon="-0.58988">
        <ele>233.25708</ele>
        <time>2014-09-01T13:52:24Z</time>
      </trkpt>
      <trkpt lat="43.32493" lon="-0.58985">
        <ele>229.892334</ele>
        <time>2014-09-01T13:52:26Z</time>
      </trkpt>
      <trkpt lat="43.3252" lon="-0.58975">
        <ele>224.605225</ele>
        <time>2014-09-01T13:52:31Z</time>
      </trkpt>
      <trkpt lat="43.32531" lon="-0.58969">
        <ele>223.643799</ele>
        <time>2014-09-01T13:52:33Z</time>
      </trkpt>
      <trkpt lat="43.32537" lon="-0.58965">
        <ele>222.201782</ele>
        <time>2014-09-01T13:52:34Z</time>
      </trkpt>
      <trkpt lat="43.32551" lon="-0.58948">
        <ele>220.279175</ele>
        <time>2014-09-01T13:52:37Z</time>
      </trkpt>
      <trkpt lat="43.32562" lon="-0.58926">
        <ele>216.43396</ele>
        <time>2014-09-01T13:52:41Z</time>
      </trkpt>
      <trkpt lat="43.32564" lon="-0.58924">
        <ele>215.953247</ele>
        <time>2014-09-01T13:52:42Z</time>
      </trkpt>
      <trkpt lat="43.32571" lon="-0.58923">
        <ele>214.51123</ele>
        <time>2014-09-01T13:52:44Z</time>
      </trkpt>
      <trkpt lat="43.32579" lon="-0.58929">
        <ele>213.550049</ele>
        <time>2014-09-01T13:52:46Z</time>
      </trkpt>
      <trkpt lat="43.32603" lon="-0.58937">
        <ele>213.550049</ele>
        <time>2014-09-01T13:52:51Z</time>
      </trkpt>
      <trkpt lat="43.32618" lon="-0.58935">
        <ele>212.108032</ele>
        <time>2014-09-01T13:52:54Z</time>
      </trkpt>
      <trkpt lat="43.32674" lon="-0.58917">
        <ele>210.666016</ele>
        <time>2014-09-01T13:53:04Z</time>
      </trkpt>
      <trkpt lat="43.32741" lon="-0.58906">
        <ele>212.588623</ele>
        <time>2014-09-01T13:53:19Z</time>
      </trkpt>
      <trkpt lat="43.32785" lon="-0.58913">
        <ele>212.588623</ele>
        <time>2014-09-01T13:53:29Z</time>
      </trkpt>
      <trkpt lat="43.32866" lon="-0.58958">
        <ele>214.51123</ele>
        <time>2014-09-01T13:53:49Z</time>
      </trkpt>
      <trkpt lat="43.32921" lon="-0.58991">
        <ele>216.914673</ele>
        <time>2014-09-01T13:54:03Z</time>
      </trkpt>
      <trkpt lat="43.32942" lon="-0.59001">
        <ele>216.43396</ele>
        <time>2014-09-01T13:54:10Z</time>
      </trkpt>
      <trkpt lat="43.32965" lon="-0.59019">
        <ele>213.550049</ele>
        <time>2014-09-01T13:54:15Z</time>
      </trkpt>
      <trkpt lat="43.32971" lon="-0.59025">
        <ele>214.03064</ele>
        <time>2014-09-01T13:54:16Z</time>
      </trkpt>
      <trkpt lat="43.32983" lon="-0.59036">
        <ele>211.627441</ele>
        <time>2014-09-01T13:54:18Z</time>
      </trkpt>
      <trkpt lat="43.33022" lon="-0.59054">
        <ele>208.262817</ele>
        <time>2014-09-01T13:54:23Z</time>
      </trkpt>
      <trkpt lat="43.3305" lon="-0.59057">
        <ele>204.41748</ele>
        <time>2014-09-01T13:54:26Z</time>
      </trkpt>
      <trkpt lat="43.33082" lon="-0.59055">
        <ele>201.052856</ele>
        <time>2014-09-01T13:54:30Z</time>
      </trkpt>
      <trkpt lat="43.33093" lon="-0.59052">
        <ele>199.61084</ele>
        <time>2014-09-01T13:54:32Z</time>
      </trkpt>
      <trkpt lat="43.33111" lon="-0.5905">
        <ele>198.649536</ele>
        <time>2014-09-01T13:54:37Z</time>
      </trkpt>
      <trkpt lat="43.3316" lon="-0.59081">
        <ele>201.533569</ele>
        <time>2014-09-01T13:54:49Z</time>
      </trkpt>
      <trkpt lat="43.33211" lon="-0.5912">
        <ele>203.93689</ele>
        <time>2014-09-01T13:55:03Z</time>
      </trkpt>
      <trkpt lat="43.33275" lon="-0.59173">
        <ele>202.494873</ele>
        <time>2014-09-01T13:55:17Z</time>
      </trkpt>
      <trkpt lat="43.3333" lon="-0.59227">
        <ele>203.93689</ele>
        <time>2014-09-01T13:55:31Z</time>
      </trkpt>
      <trkpt lat="43.33342" lon="-0.59241">
        <ele>204.41748</ele>
        <time>2014-09-01T13:55:35Z</time>
      </trkpt>
      <trkpt lat="43.33375" lon="-0.59276">
        <ele>204.41748</ele>
        <time>2014-09-01T13:55:45Z</time>
      </trkpt>
      <trkpt lat="43.33385" lon="-0.59287">
        <ele>204.898071</ele>
        <time>2014-09-01T13:55:48Z</time>
      </trkpt>
      <trkpt lat="43.33414" lon="-0.5936">
        <ele>206.340088</ele>
        <time>2014-09-01T13:56:03Z</time>
      </trkpt>
      <trkpt lat="43.33435" lon="-0.59416">
        <ele>206.340088</ele>
        <time>2014-09-01T13:56:15Z</time>
      </trkpt>
      <trkpt lat="43.3346" lon="-0.59469">
        <ele>203.93689</ele>
        <time>2014-09-01T13:56:22Z</time>
      </trkpt>
      <trkpt lat="43.33469" lon="-0.59483">
        <ele>202.014282</ele>
        <time>2014-09-01T13:56:24Z</time>
      </trkpt>
      <trkpt lat="43.33481" lon="-0.59504">
        <ele>202.494873</ele>
        <time>2014-09-01T13:56:27Z</time>
      </trkpt>
      <trkpt lat="43.33543" lon="-0.59566">
        <ele>199.130127</ele>
        <time>2014-09-01T13:56:41Z</time>
      </trkpt>
      <trkpt lat="43.33549" lon="-0.59573">
        <ele>198.649536</ele>
        <time>2014-09-01T13:56:43Z</time>
      </trkpt>
      <trkpt lat="43.33565" lon="-0.59566">
        <ele>198.649536</ele>
        <time>2014-09-01T13:56:47Z</time>
      </trkpt>
      <trkpt lat="43.33604" lon="-0.59542">
        <ele>195.284912</ele>
        <time>2014-09-01T13:56:53Z</time>
      </trkpt>
      <trkpt lat="43.3362" lon="-0.59533">
        <ele>192.881714</ele>
        <time>2014-09-01T13:56:55Z</time>
      </trkpt>
      <trkpt lat="43.33642" lon="-0.59512">
        <ele>189.997681</ele>
        <time>2014-09-01T13:56:58Z</time>
      </trkpt>
      <trkpt lat="43.33654" lon="-0.59489">
        <ele>185.191162</ele>
        <time>2014-09-01T13:57:00Z</time>
      </trkpt>
      <trkpt lat="43.33672" lon="-0.59448">
        <ele>180.865234</ele>
        <time>2014-09-01T13:57:03Z</time>
      </trkpt>
      <trkpt lat="43.33678" lon="-0.59435">
        <ele>179.423218</ele>
        <time>2014-09-01T13:57:04Z</time>
      </trkpt>
      <trkpt lat="43.33705" lon="-0.59399">
        <ele>175.09729</ele>
        <time>2014-09-01T13:57:07Z</time>
      </trkpt>
      <trkpt lat="43.33728" lon="-0.59382">
        <ele>173.655273</ele>
        <time>2014-09-01T13:57:09Z</time>
      </trkpt>
      <trkpt lat="43.33765" lon="-0.59362">
        <ele>169.329468</ele>
        <time>2014-09-01T13:57:12Z</time>
      </trkpt>
      <trkpt lat="43.3381" lon="-0.5933">
        <ele>166.926025</ele>
        <time>2014-09-01T13:57:16Z</time>
      </trkpt>
      <trkpt lat="43.33828" lon="-0.59317">
        <ele>165.964722</ele>
        <time>2014-09-01T13:57:18Z</time>
      </trkpt>
      <trkpt lat="43.33843" lon="-0.59307">
        <ele>164.042114</ele>
        <time>2014-09-01T13:57:20Z</time>
      </trkpt>
      <trkpt lat="43.33861" lon="-0.59302">
        <ele>162.119507</ele>
        <time>2014-09-01T13:57:24Z</time>
      </trkpt>
      <trkpt lat="43.3387" lon="-0.5933">
        <ele>163.561523</ele>
        <time>2014-09-01T13:57:33Z</time>
      </trkpt>
      <trkpt lat="43.33869" lon="-0.59371">
        <ele>167.406738</ele>
        <time>2014-09-01T13:57:44Z</time>
      </trkpt>
      <trkpt lat="43.33876" lon="-0.59398">
        <ele>170.290649</ele>
        <time>2014-09-01T13:57:52Z</time>
      </trkpt>
      <trkpt lat="43.33904" lon="-0.59415">
        <ele>171.252075</ele>
        <time>2014-09-01T13:58:05Z</time>
      </trkpt>
      <trkpt lat="43.33923" lon="-0.59417">
        <ele>172.69397</ele>
        <time>2014-09-01T13:58:18Z</time>
      </trkpt>
      <trkpt lat="43.33969" lon="-0.59422">
        <ele>175.577881</ele>
        <time>2014-09-01T13:58:34Z</time>
      </trkpt>
      <trkpt lat="43.34" lon="-0.59423">
        <ele>178.461914</ele>
        <time>2014-09-01T13:58:45Z</time>
      </trkpt>
      <trkpt lat="43.34009" lon="-0.59421">
        <ele>179.903809</ele>
        <time>2014-09-01T13:58:49Z</time>
      </trkpt>
      <trkpt lat="43.34046" lon="-0.59409">
        <ele>182.787842</ele>
        <time>2014-09-01T13:59:08Z</time>
      </trkpt>
      <trkpt lat="43.34061" lon="-0.59404">
        <ele>186.152466</ele>
        <time>2014-09-01T13:59:16Z</time>
      </trkpt>
      <trkpt lat="43.34062" lon="-0.59404">
        <ele>186.152466</ele>
        <time>2014-09-01T13:59:17Z</time>
      </trkpt>
      <trkpt lat="43.34096" lon="-0.59395">
        <ele>189.036377</ele>
        <time>2014-09-01T13:59:36Z</time>
      </trkpt>
      <trkpt lat="43.34126" lon="-0.59419">
        <ele>189.997681</ele>
        <time>2014-09-01T13:59:52Z</time>
      </trkpt>
      <trkpt lat="43.34154" lon="-0.59453">
        <ele>189.516968</ele>
        <time>2014-09-01T14:00:03Z</time>
      </trkpt>
      <trkpt lat="43.34175" lon="-0.59474">
        <ele>188.075073</ele>
        <time>2014-09-01T14:00:09Z</time>
      </trkpt>
      <trkpt lat="43.34192" lon="-0.5949">
        <ele>185.191162</ele>
        <time>2014-09-01T14:00:13Z</time>
      </trkpt>
      <trkpt lat="43.34218" lon="-0.59497">
        <ele>182.787842</ele>
        <time>2014-09-01T14:00:17Z</time>
      </trkpt>
      <trkpt lat="43.34244" lon="-0.59496">
        <ele>182.307129</ele>
        <time>2014-09-01T14:00:21Z</time>
      </trkpt>
      <trkpt lat="43.34257" lon="-0.59493">
        <ele>181.826416</ele>
        <time>2014-09-01T14:00:23Z</time>
      </trkpt>
      <trkpt lat="43.34299" lon="-0.59486">
        <ele>180.384521</ele>
        <time>2014-09-01T14:00:32Z</time>
      </trkpt>
      <trkpt lat="43.34353" lon="-0.59493">
        <ele>179.423218</ele>
        <time>2014-09-01T14:00:40Z</time>
      </trkpt>
      <trkpt lat="43.34384" lon="-0.595">
        <ele>179.903809</ele>
        <time>2014-09-01T14:00:46Z</time>
      </trkpt>
      <trkpt lat="43.344" lon="-0.59502">
        <ele>179.423218</ele>
        <time>2014-09-01T14:00:49Z</time>
      </trkpt>
      <trkpt lat="43.34424" lon="-0.59511">
        <ele>179.903809</ele>
        <time>2014-09-01T14:00:54Z</time>
      </trkpt>
      <trkpt lat="43.34434" lon="-0.59516">
        <ele>178.942627</ele>
        <time>2014-09-01T14:00:56Z</time>
      </trkpt>
      <trkpt lat="43.34444" lon="-0.59521">
        <ele>178.942627</ele>
        <time>2014-09-01T14:00:58Z</time>
      </trkpt>
      <trkpt lat="43.34488" lon="-0.59537">
        <ele>177.981201</ele>
        <time>2014-09-01T14:01:05Z</time>
      </trkpt>
      <trkpt lat="43.34497" lon="-0.59544">
        <ele>177.981201</ele>
        <time>2014-09-01T14:01:07Z</time>
      </trkpt>
      <trkpt lat="43.34505" lon="-0.59552">
        <ele>177.02002</ele>
        <time>2014-09-01T14:01:09Z</time>
      </trkpt>
      <trkpt lat="43.34531" lon="-0.59564">
        <ele>175.09729</ele>
        <time>2014-09-01T14:01:14Z</time>
      </trkpt>
      <trkpt lat="43.34574" lon="-0.59555">
        <ele>173.174683</ele>
        <time>2014-09-01T14:01:21Z</time>
      </trkpt>
      <trkpt lat="43.34594" lon="-0.59546">
        <ele>170.771362</ele>
        <time>2014-09-01T14:01:24Z</time>
      </trkpt>
      <trkpt lat="43.34619" lon="-0.59554">
        <ele>169.329468</ele>
        <time>2014-09-01T14:01:28Z</time>
      </trkpt>
      <trkpt lat="43.34677" lon="-0.59614">
        <ele>169.329468</ele>
        <time>2014-09-01T14:01:39Z</time>
      </trkpt>
      <trkpt lat="43.34706" lon="-0.59621">
        <ele>169.329468</ele>
        <time>2014-09-01T14:01:45Z</time>
      </trkpt>
      <trkpt lat="43.34729" lon="-0.59617">
        <ele>167.406738</ele>
        <time>2014-09-01T14:01:51Z</time>
      </trkpt>
      <trkpt lat="43.34732" lon="-0.59615">
        <ele>167.406738</ele>
        <time>2014-09-01T14:01:52Z</time>
      </trkpt>
      <trkpt lat="43.34758" lon="-0.59624">
        <ele>166.926025</ele>
        <time>2014-09-01T14:01:58Z</time>
      </trkpt>
      <trkpt lat="43.34786" lon="-0.59649">
        <ele>166.926025</ele>
        <time>2014-09-01T14:02:04Z</time>
      </trkpt>
      <trkpt lat="43.34814" lon="-0.59658">
        <ele>168.848755</ele>
        <time>2014-09-01T14:02:10Z</time>
      </trkpt>
      <trkpt lat="43.34827" lon="-0.59663">
        <ele>168.848755</ele>
        <time>2014-09-01T14:02:13Z</time>
      </trkpt>
      <trkpt lat="43.34867" lon="-0.59687">
        <ele>169.810059</ele>
        <time>2014-09-01T14:02:23Z</time>
      </trkpt>
      <trkpt lat="43.34942" lon="-0.5971">
        <ele>166.926025</ele>
        <time>2014-09-01T14:02:36Z</time>
      </trkpt>
      <trkpt lat="43.35022" lon="-0.5973">
        <ele>164.522705</ele>
        <time>2014-09-01T14:02:48Z</time>
      </trkpt>
      <trkpt lat="43.35091" lon="-0.59747">
        <ele>163.561523</ele>
        <time>2014-09-01T14:03:00Z</time>
      </trkpt>
      <trkpt lat="43.35115" lon="-0.59755">
        <ele>162.119507</ele>
        <time>2014-09-01T14:03:04Z</time>
      </trkpt>
      <trkpt lat="43.35196" lon="-0.59794">
        <ele>165.003418</ele>
        <time>2014-09-01T14:03:19Z</time>
      </trkpt>
      <trkpt lat="43.35281" lon="-0.59833">
        <ele>165.964722</ele>
        <time>2014-09-01T14:03:38Z</time>
      </trkpt>
      <trkpt lat="43.3529" lon="-0.59836">
        <ele>166.445313</ele>
        <time>2014-09-01T14:03:40Z</time>
      </trkpt>
      <trkpt lat="43.35346" lon="-0.59849">
        <ele>167.887329</ele>
        <time>2014-09-01T14:03:55Z</time>
      </trkpt>
      <trkpt lat="43.35409" lon="-0.59864">
        <ele>168.848755</ele>
        <time>2014-09-01T14:04:12Z</time>
      </trkpt>
      <trkpt lat="43.35424" lon="-0.59875">
        <ele>167.406738</ele>
        <time>2014-09-01T14:04:15Z</time>
      </trkpt>
      <trkpt lat="43.35428" lon="-0.5988">
        <ele>166.926025</ele>
        <time>2014-09-01T14:04:16Z</time>
      </trkpt>
      <trkpt lat="43.35447" lon="-0.5989">
        <ele>165.003418</ele>
        <time>2014-09-01T14:04:20Z</time>
      </trkpt>
      <trkpt lat="43.35469" lon="-0.59916">
        <ele>163.561523</ele>
        <time>2014-09-01T14:04:25Z</time>
      </trkpt>
      <trkpt lat="43.35501" lon="-0.59973">
        <ele>165.484131</ele>
        <time>2014-09-01T14:04:40Z</time>
      </trkpt>
      <trkpt lat="43.35518" lon="-0.59984">
        <ele>162.600098</ele>
        <time>2014-09-01T14:04:44Z</time>
      </trkpt>
      <trkpt lat="43.35536" lon="-0.59995">
        <ele>158.754761</ele>
        <time>2014-09-01T14:04:49Z</time>
      </trkpt>
      <trkpt lat="43.35539" lon="-0.59998">
        <ele>158.27417</ele>
        <time>2014-09-01T14:04:50Z</time>
      </trkpt>
      <trkpt lat="43.35543" lon="-0.60006">
        <ele>157.312866</ele>
        <time>2014-09-01T14:04:52Z</time>
      </trkpt>
      <trkpt lat="43.35546" lon="-0.60017">
        <ele>156.832153</ele>
        <time>2014-09-01T14:04:54Z</time>
      </trkpt>
      <trkpt lat="43.35541" lon="-0.60042">
        <ele>155.870972</ele>
        <time>2014-09-01T14:04:58Z</time>
      </trkpt>
      <trkpt lat="43.35535" lon="-0.60063">
        <ele>154.909546</ele>
        <time>2014-09-01T14:05:02Z</time>
      </trkpt>
      <trkpt lat="43.35539" lon="-0.6008">
        <ele>152.506348</ele>
        <time>2014-09-01T14:05:07Z</time>
      </trkpt>
      <trkpt lat="43.3554" lon="-0.60085">
        <ele>152.025757</ele>
        <time>2014-09-01T14:05:08Z</time>
      </trkpt>
      <trkpt lat="43.35543" lon="-0.60125">
        <ele>147.218994</ele>
        <time>2014-09-01T14:05:14Z</time>
      </trkpt>
      <trkpt lat="43.35543" lon="-0.60135">
        <ele>146.738403</ele>
        <time>2014-09-01T14:05:16Z</time>
      </trkpt>
      <trkpt lat="43.35558" lon="-0.60154">
        <ele>142.893066</ele>
        <time>2014-09-01T14:05:20Z</time>
      </trkpt>
      <trkpt lat="43.35563" lon="-0.6016">
        <ele>142.893066</ele>
        <time>2014-09-01T14:05:21Z</time>
      </trkpt>
      <trkpt lat="43.35579" lon="-0.60177">
        <ele>141.931763</ele>
        <time>2014-09-01T14:05:24Z</time>
      </trkpt>
      <trkpt lat="43.35595" lon="-0.60187">
        <ele>143.373657</ele>
        <time>2014-09-01T14:05:29Z</time>
      </trkpt>
      <trkpt lat="43.35607" lon="-0.60196">
        <ele>146.257813</ele>
        <time>2014-09-01T14:05:38Z</time>
      </trkpt>
      <trkpt lat="43.35619" lon="-0.60204">
        <ele>149.622314</ele>
        <time>2014-09-01T14:05:47Z</time>
      </trkpt>
      <trkpt lat="43.35624" lon="-0.60206">
        <ele>151.064209</ele>
        <time>2014-09-01T14:05:51Z</time>
      </trkpt>
      <trkpt lat="43.35627" lon="-0.602">
        <ele>151.064209</ele>
        <time>2014-09-01T14:05:55Z</time>
      </trkpt>
      <trkpt lat="43.35632" lon="-0.602">
        <ele>151.064209</ele>
        <time>2014-09-01T14:06:03Z</time>
      </trkpt>
      <trkpt lat="43.35645" lon="-0.6022">
        <ele>154.909546</ele>
        <time>2014-09-01T14:06:17Z</time>
      </trkpt>
      <trkpt lat="43.35651" lon="-0.60229">
        <ele>156.832153</ele>
        <time>2014-09-01T14:06:23Z</time>
      </trkpt>
      <trkpt lat="43.35673" lon="-0.60234">
        <ele>159.716187</ele>
        <time>2014-09-01T14:06:39Z</time>
      </trkpt>
      <trkpt lat="43.35683" lon="-0.60233">
        <ele>161.638916</ele>
        <time>2014-09-01T14:06:46Z</time>
      </trkpt>
      <trkpt lat="43.35705" lon="-0.60243">
        <ele>164.042114</ele>
        <time>2014-09-01T14:07:01Z</time>
      </trkpt>
      <trkpt lat="43.3573" lon="-0.60257">
        <ele>167.406738</ele>
        <time>2014-09-01T14:07:17Z</time>
      </trkpt>
      <trkpt lat="43.35735" lon="-0.60265">
        <ele>168.368042</ele>
        <time>2014-09-01T14:07:22Z</time>
      </trkpt>
      <trkpt lat="43.35738" lon="-0.60282">
        <ele>169.810059</ele>
        <time>2014-09-01T14:07:30Z</time>
      </trkpt>
      <trkpt lat="43.3574" lon="-0.60294">
        <ele>170.771362</ele>
        <time>2014-09-01T14:07:35Z</time>
      </trkpt>
      <trkpt lat="43.35756" lon="-0.60319">
        <ele>169.810059</ele>
        <time>2014-09-01T14:07:46Z</time>
      </trkpt>
      <trkpt lat="43.35774" lon="-0.60327">
        <ele>167.887329</ele>
        <time>2014-09-01T14:07:50Z</time>
      </trkpt>
      <trkpt lat="43.35779" lon="-0.60328">
        <ele>166.926025</ele>
        <time>2014-09-01T14:07:51Z</time>
      </trkpt>
      <trkpt lat="43.35809" lon="-0.60345">
        <ele>165.003418</ele>
        <time>2014-09-01T14:07:56Z</time>
      </trkpt>
      <trkpt lat="43.35848" lon="-0.60376">
        <ele>163.561523</ele>
        <time>2014-09-01T14:08:03Z</time>
      </trkpt>
      <trkpt lat="43.35874" lon="-0.60392">
        <ele>162.600098</ele>
        <time>2014-09-01T14:08:09Z</time>
      </trkpt>
      <trkpt lat="43.35901" lon="-0.604">
        <ele>160.196899</ele>
        <time>2014-09-01T14:08:14Z</time>
      </trkpt>
      <trkpt lat="43.35916" lon="-0.60404">
        <ele>157.312866</ele>
        <time>2014-09-01T14:08:18Z</time>
      </trkpt>
      <trkpt lat="43.3592" lon="-0.60405">
        <ele>156.832153</ele>
        <time>2014-09-01T14:08:19Z</time>
      </trkpt>
      <trkpt lat="43.3593" lon="-0.60402">
        <ele>153.948364</ele>
        <time>2014-09-01T14:08:22Z</time>
      </trkpt>
      <trkpt lat="43.35934" lon="-0.60402">
        <ele>152.986938</ele>
        <time>2014-09-01T14:08:23Z</time>
      </trkpt>
      <trkpt lat="43.35949" lon="-0.60405">
        <ele>149.622314</ele>
        <time>2014-09-01T14:08:27Z</time>
      </trkpt>
      <trkpt lat="43.35953" lon="-0.60405">
        <ele>149.141602</ele>
        <time>2014-09-01T14:08:28Z</time>
      </trkpt>
      <trkpt lat="43.35978" lon="-0.60415">
        <ele>144.815796</ele>
        <time>2014-09-01T14:08:33Z</time>
      </trkpt>
      <trkpt lat="43.35983" lon="-0.60419">
        <ele>143.85437</ele>
        <time>2014-09-01T14:08:34Z</time>
      </trkpt>
      <trkpt lat="43.35993" lon="-0.60436">
        <ele>143.373657</ele>
        <time>2014-09-01T14:08:37Z</time>
      </trkpt>
      <trkpt lat="43.35997" lon="-0.60469">
        <ele>138.086548</ele>
        <time>2014-09-01T14:08:41Z</time>
      </trkpt>
      <trkpt lat="43.3598" lon="-0.60509">
        <ele>134.241211</ele>
        <time>2014-09-01T14:08:46Z</time>
      </trkpt>
      <trkpt lat="43.35967" lon="-0.60522">
        <ele>132.799316</ele>
        <time>2014-09-01T14:08:48Z</time>
      </trkpt>
      <trkpt lat="43.35919" lon="-0.60562">
        <ele>132.318604</ele>
        <time>2014-09-01T14:08:55Z</time>
      </trkpt>
      <trkpt lat="43.35899" lon="-0.60594">
        <ele>131.3573</ele>
        <time>2014-09-01T14:09:00Z</time>
      </trkpt>
      <trkpt lat="43.35877" lon="-0.60612">
        <ele>129.434692</ele>
        <time>2014-09-01T14:09:05Z</time>
      </trkpt>
      <trkpt lat="43.35872" lon="-0.6063">
        <ele>127.031372</ele>
        <time>2014-09-01T14:09:09Z</time>
      </trkpt>
      <trkpt lat="43.35868" lon="-0.60651">
        <ele>123.666748</ele>
        <time>2014-09-01T14:09:12Z</time>
      </trkpt>
      <trkpt lat="43.35863" lon="-0.6067">
        <ele>122.224731</ele>
        <time>2014-09-01T14:09:15Z</time>
      </trkpt>
      <trkpt lat="43.35855" lon="-0.60685">
        <ele>118.860107</ele>
        <time>2014-09-01T14:09:19Z</time>
      </trkpt>
      <trkpt lat="43.35853" lon="-0.60687">
        <ele>118.860107</ele>
        <time>2014-09-01T14:09:20Z</time>
      </trkpt>
      <trkpt lat="43.35852" lon="-0.60692">
        <ele>116.9375</ele>
        <time>2014-09-01T14:09:22Z</time>
      </trkpt>
      <trkpt lat="43.35865" lon="-0.60704">
        <ele>117.418213</ele>
        <time>2014-09-01T14:09:27Z</time>
      </trkpt>
      <trkpt lat="43.35928" lon="-0.6074">
        <ele>115.976196</ele>
        <time>2014-09-01T14:09:44Z</time>
      </trkpt>
      <trkpt lat="43.35953" lon="-0.60753">
        <ele>115.495605</ele>
        <time>2014-09-01T14:09:50Z</time>
      </trkpt>
      <trkpt lat="43.35955" lon="-0.60788">
        <ele>113.572998</ele>
        <time>2014-09-01T14:09:57Z</time>
      </trkpt>
      <trkpt lat="43.35952" lon="-0.60811">
        <ele>113.572998</ele>
        <time>2014-09-01T14:10:02Z</time>
      </trkpt>
      <trkpt lat="43.35995" lon="-0.60855">
        <ele>113.572998</ele>
        <time>2014-09-01T14:10:16Z</time>
      </trkpt>
      <trkpt lat="43.36029" lon="-0.60853">
        <ele>115.976196</ele>
        <time>2014-09-01T14:10:26Z</time>
      </trkpt>
      <trkpt lat="43.361" lon="-0.60828">
        <ele>114.53418</ele>
        <time>2014-09-01T14:10:41Z</time>
      </trkpt>
      <trkpt lat="43.36123" lon="-0.6082">
        <ele>115.014893</ele>
        <time>2014-09-01T14:10:46Z</time>
      </trkpt>
      <trkpt lat="43.36152" lon="-0.6084">
        <ele>114.53418</ele>
        <time>2014-09-01T14:10:54Z</time>
      </trkpt>
      <trkpt lat="43.36178" lon="-0.60905">
        <ele>114.53418</ele>
        <time>2014-09-01T14:11:05Z</time>
      </trkpt>
      <trkpt lat="43.36186" lon="-0.6092">
        <ele>114.53418</ele>
        <time>2014-09-01T14:11:08Z</time>
      </trkpt>
      <trkpt lat="43.36197" lon="-0.60947">
        <ele>114.53418</ele>
        <time>2014-09-01T14:11:13Z</time>
      </trkpt>
      <trkpt lat="43.36202" lon="-0.60966">
        <ele>115.014893</ele>
        <time>2014-09-01T14:11:16Z</time>
      </trkpt>
      <trkpt lat="43.36204" lon="-0.61008">
        <ele>115.014893</ele>
        <time>2014-09-01T14:11:22Z</time>
      </trkpt>
      <trkpt lat="43.36206" lon="-0.61042">
        <ele>114.053589</ele>
        <time>2014-09-01T14:11:27Z</time>
      </trkpt>
      <trkpt lat="43.36206" lon="-0.61057">
        <ele>114.053589</ele>
        <time>2014-09-01T14:11:29Z</time>
      </trkpt>
      <trkpt lat="43.36208" lon="-0.61147">
        <ele>113.572998</ele>
        <time>2014-09-01T14:11:40Z</time>
      </trkpt>
      <trkpt lat="43.36207" lon="-0.61196">
        <ele>113.092285</ele>
        <time>2014-09-01T14:11:46Z</time>
      </trkpt>
      <trkpt lat="43.36209" lon="-0.6121">
        <ele>113.092285</ele>
        <time>2014-09-01T14:11:48Z</time>
      </trkpt>
      <trkpt lat="43.36212" lon="-0.61229">
        <ele>113.092285</ele>
        <time>2014-09-01T14:11:51Z</time>
      </trkpt>
      <trkpt lat="43.3622" lon="-0.61254">
        <ele>114.53418</ele>
        <time>2014-09-01T14:11:55Z</time>
      </trkpt>
      <trkpt lat="43.36234" lon="-0.61282">
        <ele>114.053589</ele>
        <time>2014-09-01T14:12:00Z</time>
      </trkpt>
      <trkpt lat="43.36237" lon="-0.61288">
        <ele>114.53418</ele>
        <time>2014-09-01T14:12:01Z</time>
      </trkpt>
      <trkpt lat="43.36241" lon="-0.61302">
        <ele>114.53418</ele>
        <time>2014-09-01T14:12:03Z</time>
      </trkpt>
      <trkpt lat="43.36244" lon="-0.61316">
        <ele>114.53418</ele>
        <time>2014-09-01T14:12:05Z</time>
      </trkpt>
      <trkpt lat="43.36251" lon="-0.61335">
        <ele>113.572998</ele>
        <time>2014-09-01T14:12:08Z</time>
      </trkpt>
      <trkpt lat="43.36267" lon="-0.61397">
        <ele>113.092285</ele>
        <time>2014-09-01T14:12:17Z</time>
      </trkpt>
      <trkpt lat="43.36284" lon="-0.61416">
        <ele>114.053589</ele>
        <time>2014-09-01T14:12:21Z</time>
      </trkpt>
      <trkpt lat="43.36291" lon="-0.61436">
        <ele>113.572998</ele>
        <time>2014-09-01T14:12:24Z</time>
      </trkpt>
      <trkpt lat="43.36294" lon="-0.61451">
        <ele>113.572998</ele>
        <time>2014-09-01T14:12:26Z</time>
      </trkpt>
      <trkpt lat="43.36302" lon="-0.61471">
        <ele>113.092285</ele>
        <time>2014-09-01T14:12:29Z</time>
      </trkpt>
      <trkpt lat="43.36317" lon="-0.61492">
        <ele>112.611572</ele>
        <time>2014-09-01T14:12:33Z</time>
      </trkpt>
      <trkpt lat="43.3634" lon="-0.61508">
        <ele>112.611572</ele>
        <time>2014-09-01T14:12:38Z</time>
      </trkpt>
      <trkpt lat="43.36377" lon="-0.61513">
        <ele>114.53418</ele>
        <time>2014-09-01T14:12:46Z</time>
      </trkpt>
      <trkpt lat="43.36402" lon="-0.61527">
        <ele>114.53418</ele>
        <time>2014-09-01T14:12:52Z</time>
      </trkpt>
      <trkpt lat="43.36416" lon="-0.61537">
        <ele>114.053589</ele>
        <time>2014-09-01T14:12:55Z</time>
      </trkpt>
      <trkpt lat="43.36445" lon="-0.61555">
        <ele>114.053589</ele>
        <time>2014-09-01T14:13:01Z</time>
      </trkpt>
      <trkpt lat="43.3648" lon="-0.61567">
        <ele>116.456787</ele>
        <time>2014-09-01T14:13:10Z</time>
      </trkpt>
      <trkpt lat="43.36522" lon="-0.61597">
        <ele>113.572998</ele>
        <time>2014-09-01T14:13:20Z</time>
      </trkpt>
      <trkpt lat="43.36547" lon="-0.61598">
        <ele>114.053589</ele>
        <time>2014-09-01T14:13:25Z</time>
      </trkpt>
      <trkpt lat="43.36572" lon="-0.61593">
        <ele>115.495605</ele>
        <time>2014-09-01T14:13:31Z</time>
      </trkpt>
      <trkpt lat="43.366" lon="-0.61594">
        <ele>115.495605</ele>
        <time>2014-09-01T14:13:37Z</time>
      </trkpt>
      <trkpt lat="43.36669" lon="-0.616">
        <ele>113.572998</ele>
        <time>2014-09-01T14:13:51Z</time>
      </trkpt>
      <trkpt lat="43.36675" lon="-0.61601">
        <ele>113.092285</ele>
        <time>2014-09-01T14:13:52Z</time>
      </trkpt>
      <trkpt lat="43.36712" lon="-0.61578">
        <ele>113.092285</ele>
        <time>2014-09-01T14:14:02Z</time>
      </trkpt>
      <trkpt lat="43.36726" lon="-0.61542">
        <ele>116.456787</ele>
        <time>2014-09-01T14:14:11Z</time>
      </trkpt>
      <trkpt lat="43.3673" lon="-0.61505">
        <ele>116.9375</ele>
        <time>2014-09-01T14:14:21Z</time>
      </trkpt>
      <trkpt lat="43.36737" lon="-0.61477">
        <ele>118.860107</ele>
        <time>2014-09-01T14:14:28Z</time>
      </trkpt>
      <trkpt lat="43.3674" lon="-0.61463">
        <ele>120.302124</ele>
        <time>2014-09-01T14:14:33Z</time>
      </trkpt>
      <trkpt lat="43.36754" lon="-0.61426">
        <ele>124.147339</ele>
        <time>2014-09-01T14:14:46Z</time>
      </trkpt>
      <trkpt lat="43.36768" lon="-0.61388">
        <ele>126.550659</ele>
        <time>2014-09-01T14:14:59Z</time>
      </trkpt>
      <trkpt lat="43.36781" lon="-0.61364">
        <ele>127.992554</ele>
        <time>2014-09-01T14:15:09Z</time>
      </trkpt>
      <trkpt lat="43.3679" lon="-0.6137">
        <ele>129.434692</ele>
        <time>2014-09-01T14:15:14Z</time>
      </trkpt>
      <trkpt lat="43.36796" lon="-0.61377">
        <ele>129.434692</ele>
        <time>2014-09-01T14:15:18Z</time>
      </trkpt>
      <trkpt lat="43.36817" lon="-0.61387">
        <ele>132.799316</ele>
        <time>2014-09-01T14:15:31Z</time>
      </trkpt>
      <trkpt lat="43.36839" lon="-0.61381">
        <ele>135.683105</ele>
        <time>2014-09-01T14:15:44Z</time>
      </trkpt>
      <trkpt lat="43.36845" lon="-0.61385">
        <ele>136.16394</ele>
        <time>2014-09-01T14:15:55Z</time>
      </trkpt>
      <trkpt lat="43.36844" lon="-0.61391">
        <ele>136.644653</ele>
        <time>2014-09-01T14:16:10Z</time>
      </trkpt>
      <trkpt lat="43.36852" lon="-0.61396">
        <ele>137.605835</ele>
        <time>2014-09-01T14:16:25Z</time>
      </trkpt>
      <trkpt lat="43.36871" lon="-0.61406">
        <ele>140.970459</ele>
        <time>2014-09-01T14:16:38Z</time>
      </trkpt>
      <trkpt lat="43.36888" lon="-0.61423">
        <ele>142.893066</ele>
        <time>2014-09-01T14:16:49Z</time>
      </trkpt>
      <trkpt lat="43.3689" lon="-0.61424">
        <ele>141.931763</ele>
        <time>2014-09-01T14:16:50Z</time>
      </trkpt>
      <trkpt lat="43.36898" lon="-0.61431">
        <ele>142.893066</ele>
        <time>2014-09-01T14:16:55Z</time>
      </trkpt>
      <trkpt lat="43.36908" lon="-0.61449">
        <ele>144.335205</ele>
        <time>2014-09-01T14:17:03Z</time>
      </trkpt>
      <trkpt lat="43.36912" lon="-0.61453">
        <ele>144.335205</ele>
        <time>2014-09-01T14:17:05Z</time>
      </trkpt>
      <trkpt lat="43.36918" lon="-0.61446">
        <ele>144.335205</ele>
        <time>2014-09-01T14:17:10Z</time>
      </trkpt>
      <trkpt lat="43.36944" lon="-0.61421">
        <ele>145.7771</ele>
        <time>2014-09-01T14:17:22Z</time>
      </trkpt>
      <trkpt lat="43.36979" lon="-0.61435">
        <ele>147.218994</ele>
        <time>2014-09-01T14:17:32Z</time>
      </trkpt>
      <trkpt lat="43.36991" lon="-0.61433">
        <ele>146.738403</ele>
        <time>2014-09-01T14:17:36Z</time>
      </trkpt>
      <trkpt lat="43.37007" lon="-0.61438">
        <ele>146.257813</ele>
        <time>2014-09-01T14:17:40Z</time>
      </trkpt>
      <trkpt lat="43.37029" lon="-0.61451">
        <ele>144.335205</ele>
        <time>2014-09-01T14:17:45Z</time>
      </trkpt>
      <trkpt lat="43.37056" lon="-0.61464">
        <ele>142.412476</ele>
        <time>2014-09-01T14:17:50Z</time>
      </trkpt>
      <trkpt lat="43.37077" lon="-0.61464">
        <ele>141.45105</ele>
        <time>2014-09-01T14:17:54Z</time>
      </trkpt>
      <trkpt lat="43.37095" lon="-0.61465">
        <ele>138.567261</ele>
        <time>2014-09-01T14:17:57Z</time>
      </trkpt>
      <trkpt lat="43.37123" lon="-0.61475">
        <ele>136.644653</ele>
        <time>2014-09-01T14:18:02Z</time>
      </trkpt>
      <trkpt lat="43.37134" lon="-0.61481">
        <ele>135.683105</ele>
        <time>2014-09-01T14:18:04Z</time>
      </trkpt>
      <trkpt lat="43.37148" lon="-0.61486">
        <ele>132.318604</ele>
        <time>2014-09-01T14:18:07Z</time>
      </trkpt>
      <trkpt lat="43.3717" lon="-0.61489">
        <ele>129.915283</ele>
        <time>2014-09-01T14:18:12Z</time>
      </trkpt>
      <trkpt lat="43.37179" lon="-0.61492">
        <ele>129.434692</ele>
        <time>2014-09-01T14:18:14Z</time>
      </trkpt>
      <trkpt lat="43.37193" lon="-0.61495">
        <ele>126.069946</ele>
        <time>2014-09-01T14:18:17Z</time>
      </trkpt>
      <trkpt lat="43.37214" lon="-0.61503">
        <ele>124.628052</ele>
        <time>2014-09-01T14:18:21Z</time>
      </trkpt>
      <trkpt lat="43.37225" lon="-0.61509">
        <ele>123.186157</ele>
        <time>2014-09-01T14:18:23Z</time>
      </trkpt>
      <trkpt lat="43.37251" lon="-0.61516">
        <ele>121.26355</ele>
        <time>2014-09-01T14:18:27Z</time>
      </trkpt>
      <trkpt lat="43.37258" lon="-0.61518">
        <ele>120.302124</ele>
        <time>2014-09-01T14:18:28Z</time>
      </trkpt>
      <trkpt lat="43.37275" lon="-0.61528">
        <ele>118.860107</ele>
        <time>2014-09-01T14:18:30Z</time>
      </trkpt>
      <trkpt lat="43.3729" lon="-0.61541">
        <ele>117.898804</ele>
        <time>2014-09-01T14:18:32Z</time>
      </trkpt>
      <trkpt lat="43.37304" lon="-0.61565">
        <ele>116.9375</ele>
        <time>2014-09-01T14:18:35Z</time>
      </trkpt>
      <trkpt lat="43.37322" lon="-0.61604">
        <ele>116.456787</ele>
        <time>2014-09-01T14:18:40Z</time>
      </trkpt>
      <trkpt lat="43.3734" lon="-0.61629">
        <ele>115.976196</ele>
        <time>2014-09-01T14:18:44Z</time>
      </trkpt>
      <trkpt lat="43.37353" lon="-0.61637">
        <ele>114.053589</ele>
        <time>2014-09-01T14:18:47Z</time>
      </trkpt>
      <trkpt lat="43.37361" lon="-0.6163">
        <ele>114.053589</ele>
        <time>2014-09-01T14:18:49Z</time>
      </trkpt>
      <trkpt lat="43.37432" lon="-0.61541">
        <ele>112.611572</ele>
        <time>2014-09-01T14:19:06Z</time>
      </trkpt>
      <trkpt lat="43.37446" lon="-0.61509">
        <ele>113.572998</ele>
        <time>2014-09-01T14:19:11Z</time>
      </trkpt>
      <trkpt lat="43.37481" lon="-0.61423">
        <ele>113.092285</ele>
        <time>2014-09-01T14:19:25Z</time>
      </trkpt>
      <trkpt lat="43.37509" lon="-0.61361">
        <ele>111.169556</ele>
        <time>2014-09-01T14:19:35Z</time>
      </trkpt>
      <trkpt lat="43.37535" lon="-0.61279">
        <ele>110.688843</ele>
        <time>2014-09-01T14:19:47Z</time>
      </trkpt>
      <trkpt lat="43.37542" lon="-0.61259">
        <ele>111.650269</ele>
        <time>2014-09-01T14:19:50Z</time>
      </trkpt>
      <trkpt lat="43.3755" lon="-0.61226">
        <ele>111.169556</ele>
        <time>2014-09-01T14:19:55Z</time>
      </trkpt>
      <trkpt lat="43.37573" lon="-0.61173">
        <ele>112.611572</ele>
        <time>2014-09-01T14:20:05Z</time>
      </trkpt>
      <trkpt lat="43.37569" lon="-0.61158">
        <ele>112.611572</ele>
        <time>2014-09-01T14:20:08Z</time>
      </trkpt>
      <trkpt lat="43.37548" lon="-0.61117">
        <ele>111.650269</ele>
        <time>2014-09-01T14:20:23Z</time>
      </trkpt>
      <trkpt lat="43.37549" lon="-0.61117">
        <ele>110.208252</ele>
        <time>2014-09-01T14:20:57Z</time>
      </trkpt>
      <trkpt lat="43.37549" lon="-0.61116">
        <ele>111.169556</ele>
        <time>2014-09-01T14:21:00Z</time>
      </trkpt>
      <trkpt lat="43.37525" lon="-0.61124">
        <ele>110.688843</ele>
        <time>2014-09-01T14:21:08Z</time>
      </trkpt>
      <trkpt lat="43.37495" lon="-0.61139">
        <ele>110.688843</ele>
        <time>2014-09-01T14:21:15Z</time>
      </trkpt>
      <trkpt lat="43.37477" lon="-0.61139">
        <ele>110.688843</ele>
        <time>2014-09-01T14:21:19Z</time>
      </trkpt>
      <trkpt lat="43.37377" lon="-0.61108">
        <ele>111.650269</ele>
        <time>2014-09-01T14:21:41Z</time>
      </trkpt>
      <trkpt lat="43.37354" lon="-0.611">
        <ele>111.169556</ele>
        <time>2014-09-01T14:21:46Z</time>
      </trkpt>
      <trkpt lat="43.37328" lon="-0.61077">
        <ele>111.650269</ele>
        <time>2014-09-01T14:21:53Z</time>
      </trkpt>
      <trkpt lat="43.37317" lon="-0.61058">
        <ele>112.130981</ele>
        <time>2014-09-01T14:21:57Z</time>
      </trkpt>
      <trkpt lat="43.373" lon="-0.6104">
        <ele>111.650269</ele>
        <time>2014-09-01T14:22:02Z</time>
      </trkpt>
      <trkpt lat="43.37291" lon="-0.61037">
        <ele>113.092285</ele>
        <time>2014-09-01T14:22:04Z</time>
      </trkpt>
      <trkpt lat="43.37287" lon="-0.61036">
        <ele>112.130981</ele>
        <time>2014-09-01T14:22:05Z</time>
      </trkpt>
      <trkpt lat="43.37259" lon="-0.61038">
        <ele>112.611572</ele>
        <time>2014-09-01T14:22:11Z</time>
      </trkpt>
      <trkpt lat="43.37228" lon="-0.6101">
        <ele>112.130981</ele>
        <time>2014-09-01T14:22:19Z</time>
      </trkpt>
      <trkpt lat="43.37195" lon="-0.60979">
        <ele>113.092285</ele>
        <time>2014-09-01T14:22:28Z</time>
      </trkpt>
      <trkpt lat="43.37152" lon="-0.60936">
        <ele>112.611572</ele>
        <time>2014-09-01T14:22:40Z</time>
      </trkpt>
      <trkpt lat="43.37144" lon="-0.60931">
        <ele>113.092285</ele>
        <time>2014-09-01T14:22:42Z</time>
      </trkpt>
      <trkpt lat="43.37097" lon="-0.60888">
        <ele>112.611572</ele>
        <time>2014-09-01T14:22:55Z</time>
      </trkpt>
      <trkpt lat="43.37081" lon="-0.60874">
        <ele>113.092285</ele>
        <time>2014-09-01T14:22:59Z</time>
      </trkpt>
      <trkpt lat="43.37027" lon="-0.60824">
        <ele>112.611572</ele>
        <time>2014-09-01T14:23:13Z</time>
      </trkpt>
      <trkpt lat="43.36999" lon="-0.60798">
        <ele>113.092285</ele>
        <time>2014-09-01T14:23:23Z</time>
      </trkpt>
      <trkpt lat="43.36984" lon="-0.60778">
        <ele>113.572998</ele>
        <time>2014-09-01T14:23:28Z</time>
      </trkpt>
      <trkpt lat="43.36964" lon="-0.60752">
        <ele>113.092285</ele>
        <time>2014-09-01T14:23:34Z</time>
      </trkpt>
      <trkpt lat="43.36939" lon="-0.60717">
        <ele>112.130981</ele>
        <time>2014-09-01T14:23:43Z</time>
      </trkpt>
      <trkpt lat="43.36936" lon="-0.60712">
        <ele>111.650269</ele>
        <time>2014-09-01T14:23:50Z</time>
      </trkpt>
      <trkpt lat="43.36933" lon="-0.60705">
        <ele>113.092285</ele>
        <time>2014-09-01T14:24:03Z</time>
      </trkpt>
      <trkpt lat="43.36933" lon="-0.60704">
        <ele>113.092285</ele>
        <time>2014-09-01T14:24:04Z</time>
      </trkpt>
      <trkpt lat="43.36936" lon="-0.60692">
        <ele>112.611572</ele>
        <time>2014-09-01T14:24:09Z</time>
      </trkpt>
      <trkpt lat="43.36955" lon="-0.60648">
        <ele>113.572998</ele>
        <time>2014-09-01T14:24:21Z</time>
      </trkpt>
      <trkpt lat="43.36968" lon="-0.60601">
        <ele>113.092285</ele>
        <time>2014-09-01T14:24:31Z</time>
      </trkpt>
      <trkpt lat="43.36947" lon="-0.60556">
        <ele>114.053589</ele>
        <time>2014-09-01T14:24:41Z</time>
      </trkpt>
      <trkpt lat="43.36924" lon="-0.6052">
        <ele>113.572998</ele>
        <time>2014-09-01T14:24:51Z</time>
      </trkpt>
      <trkpt lat="43.36904" lon="-0.60486">
        <ele>114.053589</ele>
        <time>2014-09-01T14:24:59Z</time>
      </trkpt>
      <trkpt lat="43.36865" lon="-0.60453">
        <ele>113.572998</ele>
        <time>2014-09-01T14:25:10Z</time>
      </trkpt>
      <trkpt lat="43.36859" lon="-0.60434">
        <ele>113.092285</ele>
        <time>2014-09-01T14:25:19Z</time>
      </trkpt>
      <trkpt lat="43.36847" lon="-0.604">
        <ele>113.092285</ele>
        <time>2014-09-01T14:25:32Z</time>
      </trkpt>
      <trkpt lat="43.36842" lon="-0.60389">
        <ele>111.650269</ele>
        <time>2014-09-01T14:25:45Z</time>
      </trkpt>
      <trkpt lat="43.36846" lon="-0.60388">
        <ele>112.611572</ele>
        <time>2014-09-01T14:26:33Z</time>
      </trkpt>
      <trkpt lat="43.36843" lon="-0.60385">
        <ele>112.130981</ele>
        <time>2014-09-01T14:28:09Z</time>
      </trkpt>
      <trkpt lat="43.36814" lon="-0.60366">
        <ele>112.130981</ele>
        <time>2014-09-01T14:28:19Z</time>
      </trkpt>
      <trkpt lat="43.36746" lon="-0.60296">
        <ele>112.130981</ele>
        <time>2014-09-01T14:28:38Z</time>
      </trkpt>
      <trkpt lat="43.36742" lon="-0.60292">
        <ele>112.130981</ele>
        <time>2014-09-01T14:28:39Z</time>
      </trkpt>
      <trkpt lat="43.36691" lon="-0.60249">
        <ele>112.130981</ele>
        <time>2014-09-01T14:28:53Z</time>
      </trkpt>
      <trkpt lat="43.36679" lon="-0.60235">
        <ele>112.611572</ele>
        <time>2014-09-01T14:28:57Z</time>
      </trkpt>
      <trkpt lat="43.36663" lon="-0.60271">
        <ele>113.092285</ele>
        <time>2014-09-01T14:29:05Z</time>
      </trkpt>
      <trkpt lat="43.3663" lon="-0.60378">
        <ele>113.092285</ele>
        <time>2014-09-01T14:29:21Z</time>
      </trkpt>
      <trkpt lat="43.36614" lon="-0.60407">
        <ele>113.092285</ele>
        <time>2014-09-01T14:29:26Z</time>
      </trkpt>
      <trkpt lat="43.36592" lon="-0.6041">
        <ele>112.611572</ele>
        <time>2014-09-01T14:29:31Z</time>
      </trkpt>
      <trkpt lat="43.36528" lon="-0.6034">
        <ele>113.092285</ele>
        <time>2014-09-01T14:29:46Z</time>
      </trkpt>
      <trkpt lat="43.36501" lon="-0.60315">
        <ele>111.650269</ele>
        <time>2014-09-01T14:29:57Z</time>
      </trkpt>
      <trkpt lat="43.365" lon="-0.60316">
        <ele>111.650269</ele>
        <time>2014-09-01T14:30:14Z</time>
      </trkpt>
      <trkpt lat="43.36501" lon="-0.60316">
        <ele>110.688843</ele>
        <time>2014-09-01T14:31:22Z</time>
      </trkpt>
      <trkpt lat="43.36501" lon="-0.60318">
        <ele>111.169556</ele>
        <time>2014-09-01T14:31:51Z</time>
      </trkpt>
      <trkpt lat="43.36497" lon="-0.60311">
        <ele>111.650269</ele>
        <time>2014-09-01T14:32:38Z</time>
      </trkpt>
      <trkpt lat="43.36467" lon="-0.60281">
        <ele>112.130981</ele>
        <time>2014-09-01T14:32:49Z</time>
      </trkpt>
      <trkpt lat="43.3641" lon="-0.60215">
        <ele>113.092285</ele>
        <time>2014-09-01T14:33:05Z</time>
      </trkpt>
      <trkpt lat="43.36362" lon="-0.60127">
        <ele>112.611572</ele>
        <time>2014-09-01T14:33:22Z</time>
      </trkpt>
      <trkpt lat="43.36336" lon="-0.60112">
        <ele>112.130981</ele>
        <time>2014-09-01T14:33:28Z</time>
      </trkpt>
      <trkpt lat="43.36316" lon="-0.60114">
        <ele>112.611572</ele>
        <time>2014-09-01T14:33:32Z</time>
      </trkpt>
      <trkpt lat="43.36231" lon="-0.60087">
        <ele>113.092285</ele>
        <time>2014-09-01T14:33:50Z</time>
      </trkpt>
      <trkpt lat="43.3621" lon="-0.60087">
        <ele>113.572998</ele>
        <time>2014-09-01T14:33:54Z</time>
      </trkpt>
      <trkpt lat="43.36186" lon="-0.60077">
        <ele>113.572998</ele>
        <time>2014-09-01T14:33:59Z</time>
      </trkpt>
      <trkpt lat="43.36118" lon="-0.60006">
        <ele>114.053589</ele>
        <time>2014-09-01T14:34:16Z</time>
      </trkpt>
      <trkpt lat="43.36042" lon="-0.599">
        <ele>113.572998</ele>
        <time>2014-09-01T14:34:37Z</time>
      </trkpt>
      <trkpt lat="43.35976" lon="-0.59811">
        <ele>113.092285</ele>
        <time>2014-09-01T14:34:55Z</time>
      </trkpt>
      <trkpt lat="43.35941" lon="-0.59763">
        <ele>113.572998</ele>
        <time>2014-09-01T14:35:05Z</time>
      </trkpt>
      <trkpt lat="43.3594" lon="-0.5973">
        <ele>114.053589</ele>
        <time>2014-09-01T14:35:10Z</time>
      </trkpt>
      <trkpt lat="43.35952" lon="-0.59697">
        <ele>113.572998</ele>
        <time>2014-09-01T14:35:15Z</time>
      </trkpt>
      <trkpt lat="43.35994" lon="-0.59633">
        <ele>113.572998</ele>
        <time>2014-09-01T14:35:27Z</time>
      </trkpt>
      <trkpt lat="43.35999" lon="-0.59621">
        <ele>113.572998</ele>
        <time>2014-09-01T14:35:29Z</time>
      </trkpt>
      <trkpt lat="43.3601" lon="-0.59552">
        <ele>114.053589</ele>
        <time>2014-09-01T14:35:39Z</time>
      </trkpt>
      <trkpt lat="43.36009" lon="-0.5954">
        <ele>114.53418</ele>
        <time>2014-09-01T14:35:41Z</time>
      </trkpt>
      <trkpt lat="43.35993" lon="-0.59517">
        <ele>114.053589</ele>
        <time>2014-09-01T14:35:48Z</time>
      </trkpt>
      <trkpt lat="43.35979" lon="-0.59512">
        <ele>113.572998</ele>
        <time>2014-09-01T14:35:51Z</time>
      </trkpt>
      <trkpt lat="43.35965" lon="-0.59498">
        <ele>114.053589</ele>
        <time>2014-09-01T14:35:55Z</time>
      </trkpt>
      <trkpt lat="43.35955" lon="-0.59487">
        <ele>114.053589</ele>
        <time>2014-09-01T14:35:58Z</time>
      </trkpt>
      <trkpt lat="43.35949" lon="-0.59479">
        <ele>115.014893</ele>
        <time>2014-09-01T14:36:00Z</time>
      </trkpt>
      <trkpt lat="43.3592" lon="-0.59452">
        <ele>114.53418</ele>
        <time>2014-09-01T14:36:08Z</time>
      </trkpt>
      <trkpt lat="43.35885" lon="-0.59418">
        <ele>114.53418</ele>
        <time>2014-09-01T14:36:18Z</time>
      </trkpt>
      <trkpt lat="43.35868" lon="-0.59376">
        <ele>113.572998</ele>
        <time>2014-09-01T14:36:27Z</time>
      </trkpt>
      <trkpt lat="43.35857" lon="-0.59365">
        <ele>114.053589</ele>
        <time>2014-09-01T14:36:30Z</time>
      </trkpt>
      <trkpt lat="43.35837" lon="-0.59351">
        <ele>113.572998</ele>
        <time>2014-09-01T14:36:35Z</time>
      </trkpt>
      <trkpt lat="43.35806" lon="-0.59319">
        <ele>114.053589</ele>
        <time>2014-09-01T14:36:45Z</time>
      </trkpt>
      <trkpt lat="43.35811" lon="-0.59258">
        <ele>114.053589</ele>
        <time>2014-09-01T14:36:56Z</time>
      </trkpt>
      <trkpt lat="43.35809" lon="-0.59246">
        <ele>114.53418</ele>
        <time>2014-09-01T14:36:58Z</time>
      </trkpt>
      <trkpt lat="43.35808" lon="-0.59234">
        <ele>114.53418</ele>
        <time>2014-09-01T14:37:00Z</time>
      </trkpt>
      <trkpt lat="43.3581" lon="-0.59205">
        <ele>115.014893</ele>
        <time>2014-09-01T14:37:05Z</time>
      </trkpt>
      <trkpt lat="43.35811" lon="-0.59173">
        <ele>115.014893</ele>
        <time>2014-09-01T14:37:10Z</time>
      </trkpt>
      <trkpt lat="43.35812" lon="-0.59159">
        <ele>115.014893</ele>
        <time>2014-09-01T14:37:12Z</time>
      </trkpt>
      <trkpt lat="43.35803" lon="-0.59132">
        <ele>114.053589</ele>
        <time>2014-09-01T14:37:17Z</time>
      </trkpt>
      <trkpt lat="43.35767" lon="-0.59097">
        <ele>114.053589</ele>
        <time>2014-09-01T14:37:27Z</time>
      </trkpt>
      <trkpt lat="43.35765" lon="-0.59092">
        <ele>115.014893</ele>
        <time>2014-09-01T14:37:28Z</time>
      </trkpt>
      <trkpt lat="43.35759" lon="-0.59071">
        <ele>114.053589</ele>
        <time>2014-09-01T14:37:32Z</time>
      </trkpt>
      <trkpt lat="43.35753" lon="-0.59039">
        <ele>114.53418</ele>
        <time>2014-09-01T14:37:37Z</time>
      </trkpt>
      <trkpt lat="43.3575" lon="-0.58977">
        <ele>114.53418</ele>
        <time>2014-09-01T14:37:46Z</time>
      </trkpt>
      <trkpt lat="43.35743" lon="-0.58958">
        <ele>114.53418</ele>
        <time>2014-09-01T14:37:50Z</time>
      </trkpt>
      <trkpt lat="43.35727" lon="-0.58936">
        <ele>115.014893</ele>
        <time>2014-09-01T14:37:56Z</time>
      </trkpt>
      <trkpt lat="43.35691" lon="-0.58914">
        <ele>114.53418</ele>
        <time>2014-09-01T14:38:05Z</time>
      </trkpt>
      <trkpt lat="43.35676" lon="-0.58903">
        <ele>115.014893</ele>
        <time>2014-09-01T14:38:09Z</time>
      </trkpt>
      <trkpt lat="43.35669" lon="-0.58897">
        <ele>114.53418</ele>
        <time>2014-09-01T14:38:11Z</time>
      </trkpt>
      <trkpt lat="43.35657" lon="-0.58889">
        <ele>114.53418</ele>
        <time>2014-09-01T14:38:14Z</time>
      </trkpt>
      <trkpt lat="43.35641" lon="-0.58881">
        <ele>115.014893</ele>
        <time>2014-09-01T14:38:18Z</time>
      </trkpt>
      <trkpt lat="43.35626" lon="-0.58874">
        <ele>115.495605</ele>
        <time>2014-09-01T14:38:22Z</time>
      </trkpt>
      <trkpt lat="43.35618" lon="-0.5887">
        <ele>115.495605</ele>
        <time>2014-09-01T14:38:24Z</time>
      </trkpt>
      <trkpt lat="43.35606" lon="-0.58857">
        <ele>115.014893</ele>
        <time>2014-09-01T14:38:28Z</time>
      </trkpt>
      <trkpt lat="43.35591" lon="-0.58804">
        <ele>115.495605</ele>
        <time>2014-09-01T14:38:40Z</time>
      </trkpt>
      <trkpt lat="43.35589" lon="-0.588">
        <ele>115.495605</ele>
        <time>2014-09-01T14:38:41Z</time>
      </trkpt>
      <trkpt lat="43.35589" lon="-0.5877">
        <ele>115.014893</ele>
        <time>2014-09-01T14:38:49Z</time>
      </trkpt>
      <trkpt lat="43.35579" lon="-0.58729">
        <ele>115.495605</ele>
        <time>2014-09-01T14:38:59Z</time>
      </trkpt>
      <trkpt lat="43.35573" lon="-0.58674">
        <ele>115.495605</ele>
        <time>2014-09-01T14:39:10Z</time>
      </trkpt>
      <trkpt lat="43.35565" lon="-0.58623">
        <ele>116.456787</ele>
        <time>2014-09-01T14:39:20Z</time>
      </trkpt>
      <trkpt lat="43.35561" lon="-0.5856">
        <ele>116.456787</ele>
        <time>2014-09-01T14:39:31Z</time>
      </trkpt>
      <trkpt lat="43.35568" lon="-0.58533">
        <ele>115.976196</ele>
        <time>2014-09-01T14:39:36Z</time>
      </trkpt>
      <trkpt lat="43.35592" lon="-0.58479">
        <ele>115.976196</ele>
        <time>2014-09-01T14:39:46Z</time>
      </trkpt>
      <trkpt lat="43.35594" lon="-0.58473">
        <ele>115.976196</ele>
        <time>2014-09-01T14:39:47Z</time>
      </trkpt>
      <trkpt lat="43.35603" lon="-0.58444">
        <ele>116.456787</ele>
        <time>2014-09-01T14:39:52Z</time>
      </trkpt>
      <trkpt lat="43.35608" lon="-0.584">
        <ele>115.976196</ele>
        <time>2014-09-01T14:40:00Z</time>
      </trkpt>
      <trkpt lat="43.35618" lon="-0.58332">
        <ele>115.495605</ele>
        <time>2014-09-01T14:40:12Z</time>
      </trkpt>
      <trkpt lat="43.35646" lon="-0.58305">
        <ele>115.495605</ele>
        <time>2014-09-01T14:40:22Z</time>
      </trkpt>
      <trkpt lat="43.3565" lon="-0.58306">
        <ele>115.976196</ele>
        <time>2014-09-01T14:40:23Z</time>
      </trkpt>
      <trkpt lat="43.35658" lon="-0.58286">
        <ele>116.456787</ele>
        <time>2014-09-01T14:40:31Z</time>
      </trkpt>
      <trkpt lat="43.35652" lon="-0.58276">
        <ele>116.9375</ele>
        <time>2014-09-01T14:40:38Z</time>
      </trkpt>
      <trkpt lat="43.35654" lon="-0.58248">
        <ele>116.9375</ele>
        <time>2014-09-01T14:40:45Z</time>
      </trkpt>
      <trkpt lat="43.35649" lon="-0.58192">
        <ele>116.9375</ele>
        <time>2014-09-01T14:40:54Z</time>
      </trkpt>
      <trkpt lat="43.35669" lon="-0.58103">
        <ele>117.418213</ele>
        <time>2014-09-01T14:41:08Z</time>
      </trkpt>
      <trkpt lat="43.35709" lon="-0.57962">
        <ele>117.418213</ele>
        <time>2014-09-01T14:41:29Z</time>
      </trkpt>
      <trkpt lat="43.35755" lon="-0.57798">
        <ele>116.9375</ele>
        <time>2014-09-01T14:41:53Z</time>
      </trkpt>
      <trkpt lat="43.358" lon="-0.57637">
        <ele>117.898804</ele>
        <time>2014-09-01T14:42:16Z</time>
      </trkpt>
      <trkpt lat="43.35807" lon="-0.57609">
        <ele>118.379395</ele>
        <time>2014-09-01T14:42:20Z</time>
      </trkpt>
      <trkpt lat="43.35799" lon="-0.57529">
        <ele>117.418213</ele>
        <time>2014-09-01T14:42:30Z</time>
      </trkpt>
      <trkpt lat="43.35771" lon="-0.57457">
        <ele>116.9375</ele>
        <time>2014-09-01T14:42:41Z</time>
      </trkpt>
      <trkpt lat="43.35746" lon="-0.57343">
        <ele>117.418213</ele>
        <time>2014-09-01T14:42:58Z</time>
      </trkpt>
      <trkpt lat="43.35715" lon="-0.57259">
        <ele>117.898804</ele>
        <time>2014-09-01T14:43:12Z</time>
      </trkpt>
      <trkpt lat="43.35679" lon="-0.57142">
        <ele>117.898804</ele>
        <time>2014-09-01T14:43:32Z</time>
      </trkpt>
      <trkpt lat="43.35669" lon="-0.57023">
        <ele>118.379395</ele>
        <time>2014-09-01T14:43:50Z</time>
      </trkpt>
      <trkpt lat="43.35675" lon="-0.56958">
        <ele>118.860107</ele>
        <time>2014-09-01T14:44:00Z</time>
      </trkpt>
      <trkpt lat="43.35698" lon="-0.56831">
        <ele>119.34082</ele>
        <time>2014-09-01T14:44:20Z</time>
      </trkpt>
      <trkpt lat="43.35713" lon="-0.56761">
        <ele>118.860107</ele>
        <time>2014-09-01T14:44:31Z</time>
      </trkpt>
      <trkpt lat="43.35706" lon="-0.56744">
        <ele>118.379395</ele>
        <time>2014-09-01T14:44:37Z</time>
      </trkpt>
      <trkpt lat="43.35615" lon="-0.56807">
        <ele>118.379395</ele>
        <time>2014-09-01T14:44:58Z</time>
      </trkpt>
      <trkpt lat="43.35535" lon="-0.56856">
        <ele>118.379395</ele>
        <time>2014-09-01T14:45:17Z</time>
      </trkpt>
      <trkpt lat="43.35522" lon="-0.56833">
        <ele>117.898804</ele>
        <time>2014-09-01T14:45:23Z</time>
      </trkpt>
      <trkpt lat="43.35512" lon="-0.56702">
        <ele>118.379395</ele>
        <time>2014-09-01T14:45:44Z</time>
      </trkpt>
      <trkpt lat="43.35505" lon="-0.56657">
        <ele>117.418213</ele>
        <time>2014-09-01T14:45:51Z</time>
      </trkpt>
      <trkpt lat="43.35495" lon="-0.56634">
        <ele>117.898804</ele>
        <time>2014-09-01T14:45:55Z</time>
      </trkpt>
      <trkpt lat="43.35488" lon="-0.56617">
        <ele>117.898804</ele>
        <time>2014-09-01T14:45:58Z</time>
      </trkpt>
      <trkpt lat="43.35483" lon="-0.56606">
        <ele>117.418213</ele>
        <time>2014-09-01T14:46:00Z</time>
      </trkpt>
      <trkpt lat="43.35471" lon="-0.56564">
        <ele>118.379395</ele>
        <time>2014-09-01T14:46:07Z</time>
      </trkpt>
      <trkpt lat="43.35465" lon="-0.565">
        <ele>118.379395</ele>
        <time>2014-09-01T14:46:17Z</time>
      </trkpt>
      <trkpt lat="43.35451" lon="-0.56482">
        <ele>118.860107</ele>
        <time>2014-09-01T14:46:22Z</time>
      </trkpt>
      <trkpt lat="43.35353" lon="-0.56479">
        <ele>119.821411</ele>
        <time>2014-09-01T14:46:41Z</time>
      </trkpt>
      <trkpt lat="43.35237" lon="-0.56481">
        <ele>120.782837</ele>
        <time>2014-09-01T14:47:02Z</time>
      </trkpt>
      <trkpt lat="43.35151" lon="-0.56457">
        <ele>121.26355</ele>
        <time>2014-09-01T14:47:18Z</time>
      </trkpt>
      <trkpt lat="43.35129" lon="-0.56414">
        <ele>120.782837</ele>
        <time>2014-09-01T14:47:25Z</time>
      </trkpt>
      <trkpt lat="43.35114" lon="-0.56374">
        <ele>120.782837</ele>
        <time>2014-09-01T14:47:31Z</time>
      </trkpt>
      <trkpt lat="43.35122" lon="-0.56179">
        <ele>120.302124</ele>
        <time>2014-09-01T14:47:56Z</time>
      </trkpt>
      <trkpt lat="43.3512" lon="-0.56118">
        <ele>120.302124</ele>
        <time>2014-09-01T14:48:04Z</time>
      </trkpt>
      <trkpt lat="43.35076" lon="-0.55983">
        <ele>119.821411</ele>
        <time>2014-09-01T14:48:24Z</time>
      </trkpt>
      <trkpt lat="43.35019" lon="-0.55815">
        <ele>119.821411</ele>
        <time>2014-09-01T14:48:49Z</time>
      </trkpt>
      <trkpt lat="43.34972" lon="-0.55677">
        <ele>119.34082</ele>
        <time>2014-09-01T14:49:09Z</time>
      </trkpt>
      <trkpt lat="43.34967" lon="-0.55664">
        <ele>119.34082</ele>
        <time>2014-09-01T14:49:11Z</time>
      </trkpt>
      <trkpt lat="43.34969" lon="-0.55637">
        <ele>119.34082</ele>
        <time>2014-09-01T14:49:15Z</time>
      </trkpt>
      <trkpt lat="43.34996" lon="-0.55594">
        <ele>120.782837</ele>
        <time>2014-09-01T14:49:23Z</time>
      </trkpt>
      <trkpt lat="43.35002" lon="-0.55546">
        <ele>118.860107</ele>
        <time>2014-09-01T14:49:30Z</time>
      </trkpt>
      <trkpt lat="43.34982" lon="-0.55478">
        <ele>119.821411</ele>
        <time>2014-09-01T14:49:40Z</time>
      </trkpt>
      <trkpt lat="43.34983" lon="-0.55442">
        <ele>120.782837</ele>
        <time>2014-09-01T14:49:45Z</time>
      </trkpt>
      <trkpt lat="43.35039" lon="-0.55302">
        <ele>120.782837</ele>
        <time>2014-09-01T14:50:07Z</time>
      </trkpt>
      <trkpt lat="43.35049" lon="-0.55278">
        <ele>120.782837</ele>
        <time>2014-09-01T14:50:11Z</time>
      </trkpt>
      <trkpt lat="43.35074" lon="-0.55275">
        <ele>121.26355</ele>
        <time>2014-09-01T14:50:18Z</time>
      </trkpt>
      <trkpt lat="43.3515" lon="-0.55349">
        <ele>121.26355</ele>
        <time>2014-09-01T14:50:35Z</time>
      </trkpt>
      <trkpt lat="43.35184" lon="-0.55379">
        <ele>120.302124</ele>
        <time>2014-09-01T14:50:42Z</time>
      </trkpt>
      <trkpt lat="43.35206" lon="-0.55381">
        <ele>120.782837</ele>
        <time>2014-09-01T14:50:46Z</time>
      </trkpt>
      <trkpt lat="43.35229" lon="-0.55354">
        <ele>121.744141</ele>
        <time>2014-09-01T14:50:53Z</time>
      </trkpt>
      <trkpt lat="43.35226" lon="-0.55331">
        <ele>121.744141</ele>
        <time>2014-09-01T14:50:57Z</time>
      </trkpt>
      <trkpt lat="43.35218" lon="-0.55237">
        <ele>123.666748</ele>
        <time>2014-09-01T14:51:13Z</time>
      </trkpt>
      <trkpt lat="43.35214" lon="-0.55225">
        <ele>124.147339</ele>
        <time>2014-09-01T14:51:15Z</time>
      </trkpt>
      <trkpt lat="43.35205" lon="-0.55205">
        <ele>123.666748</ele>
        <time>2014-09-01T14:51:19Z</time>
      </trkpt>
      <trkpt lat="43.35173" lon="-0.5515">
        <ele>126.069946</ele>
        <time>2014-09-01T14:51:31Z</time>
      </trkpt>
      <trkpt lat="43.35161" lon="-0.55132">
        <ele>126.550659</ele>
        <time>2014-09-01T14:51:35Z</time>
      </trkpt>
      <trkpt lat="43.35141" lon="-0.55118">
        <ele>127.031372</ele>
        <time>2014-09-01T14:51:40Z</time>
      </trkpt>
      <trkpt lat="43.35067" lon="-0.55084">
        <ele>126.069946</ele>
        <time>2014-09-01T14:51:55Z</time>
      </trkpt>
      <trkpt lat="43.35001" lon="-0.55024">
        <ele>125.589355</ele>
        <time>2014-09-01T14:52:09Z</time>
      </trkpt>
      <trkpt lat="43.34948" lon="-0.54932">
        <ele>127.992554</ele>
        <time>2014-09-01T14:52:25Z</time>
      </trkpt>
      <trkpt lat="43.34943" lon="-0.54924">
        <ele>128.473389</ele>
        <time>2014-09-01T14:52:27Z</time>
      </trkpt>
      <trkpt lat="43.34932" lon="-0.54915">
        <ele>128.473389</ele>
        <time>2014-09-01T14:52:30Z</time>
      </trkpt>
      <trkpt lat="43.34902" lon="-0.54898">
        <ele>128.473389</ele>
        <time>2014-09-01T14:52:37Z</time>
      </trkpt>
      <trkpt lat="43.34877" lon="-0.5489">
        <ele>128.473389</ele>
        <time>2014-09-01T14:52:42Z</time>
      </trkpt>
      <trkpt lat="43.34856" lon="-0.54886">
        <ele>127.992554</ele>
        <time>2014-09-01T14:52:46Z</time>
      </trkpt>
      <trkpt lat="43.34839" lon="-0.54871">
        <ele>127.992554</ele>
        <time>2014-09-01T14:52:50Z</time>
      </trkpt>
      <trkpt lat="43.34781" lon="-0.54793">
        <ele>127.992554</ele>
        <time>2014-09-01T14:53:04Z</time>
      </trkpt>
      <trkpt lat="43.34755" lon="-0.54759">
        <ele>131.3573</ele>
        <time>2014-09-01T14:53:14Z</time>
      </trkpt>
      <trkpt lat="43.34701" lon="-0.5471">
        <ele>130.876709</ele>
        <time>2014-09-01T14:53:29Z</time>
      </trkpt>
      <trkpt lat="43.34645" lon="-0.54669">
        <ele>132.799316</ele>
        <time>2014-09-01T14:53:44Z</time>
      </trkpt>
      <trkpt lat="43.34627" lon="-0.54667">
        <ele>131.3573</ele>
        <time>2014-09-01T14:53:48Z</time>
      </trkpt>
      <trkpt lat="43.34601" lon="-0.5464">
        <ele>129.434692</ele>
        <time>2014-09-01T14:53:54Z</time>
      </trkpt>
      <trkpt lat="43.34589" lon="-0.5459">
        <ele>127.992554</ele>
        <time>2014-09-01T14:54:00Z</time>
      </trkpt>
      <trkpt lat="43.34583" lon="-0.54566">
        <ele>128.473389</ele>
        <time>2014-09-01T14:54:03Z</time>
      </trkpt>
      <trkpt lat="43.34556" lon="-0.54546">
        <ele>127.511963</ele>
        <time>2014-09-01T14:54:09Z</time>
      </trkpt>
      <trkpt lat="43.34541" lon="-0.5455">
        <ele>127.992554</ele>
        <time>2014-09-01T14:54:12Z</time>
      </trkpt>
      <trkpt lat="43.34516" lon="-0.54547">
        <ele>127.511963</ele>
        <time>2014-09-01T14:54:17Z</time>
      </trkpt>
      <trkpt lat="43.34467" lon="-0.54516">
        <ele>127.031372</ele>
        <time>2014-09-01T14:54:26Z</time>
      </trkpt>
      <trkpt lat="43.34384" lon="-0.54486">
        <ele>126.550659</ele>
        <time>2014-09-01T14:54:40Z</time>
      </trkpt>
      <trkpt lat="43.34327" lon="-0.54417">
        <ele>126.069946</ele>
        <time>2014-09-01T14:54:52Z</time>
      </trkpt>
      <trkpt lat="43.34318" lon="-0.5439">
        <ele>126.069946</ele>
        <time>2014-09-01T14:54:56Z</time>
      </trkpt>
      <trkpt lat="43.343" lon="-0.54329">
        <ele>126.550659</ele>
        <time>2014-09-01T14:55:05Z</time>
      </trkpt>
      <trkpt lat="43.34292" lon="-0.54311">
        <ele>126.069946</ele>
        <time>2014-09-01T14:55:08Z</time>
      </trkpt>
      <trkpt lat="43.34252" lon="-0.54245">
        <ele>125.589355</ele>
        <time>2014-09-01T14:55:19Z</time>
      </trkpt>
      <trkpt lat="43.34233" lon="-0.54228">
        <ele>125.108765</ele>
        <time>2014-09-01T14:55:23Z</time>
      </trkpt>
      <trkpt lat="43.34194" lon="-0.54206">
        <ele>124.147339</ele>
        <time>2014-09-01T14:55:30Z</time>
      </trkpt>
      <trkpt lat="43.34159" lon="-0.54179">
        <ele>125.589355</ele>
        <time>2014-09-01T14:55:37Z</time>
      </trkpt>
      <trkpt lat="43.34137" lon="-0.5416">
        <ele>126.069946</ele>
        <time>2014-09-01T14:55:43Z</time>
      </trkpt>
      <trkpt lat="43.34108" lon="-0.54126">
        <ele>127.511963</ele>
        <time>2014-09-01T14:55:52Z</time>
      </trkpt>
      <trkpt lat="43.34048" lon="-0.54038">
        <ele>128.954102</ele>
        <time>2014-09-01T14:56:10Z</time>
      </trkpt>
      <trkpt lat="43.34045" lon="-0.54033">
        <ele>129.434692</ele>
        <time>2014-09-01T14:56:11Z</time>
      </trkpt>
      <trkpt lat="43.3401" lon="-0.53989">
        <ele>128.954102</ele>
        <time>2014-09-01T14:56:20Z</time>
      </trkpt>
      <trkpt lat="43.33957" lon="-0.53945">
        <ele>126.069946</ele>
        <time>2014-09-01T14:56:30Z</time>
      </trkpt>
      <trkpt lat="43.33866" lon="-0.53892">
        <ele>125.108765</ele>
        <time>2014-09-01T14:56:46Z</time>
      </trkpt>
      <trkpt lat="43.33855" lon="-0.53886">
        <ele>125.589355</ele>
        <time>2014-09-01T14:56:48Z</time>
      </trkpt>
      <trkpt lat="43.33826" lon="-0.53855">
        <ele>126.550659</ele>
        <time>2014-09-01T14:56:55Z</time>
      </trkpt>
      <trkpt lat="43.33807" lon="-0.53831">
        <ele>126.550659</ele>
        <time>2014-09-01T14:57:00Z</time>
      </trkpt>
      <trkpt lat="43.33792" lon="-0.53804">
        <ele>126.550659</ele>
        <time>2014-09-01T14:57:05Z</time>
      </trkpt>
      <trkpt lat="43.33778" lon="-0.53775">
        <ele>126.550659</ele>
        <time>2014-09-01T14:57:10Z</time>
      </trkpt>
      <trkpt lat="43.33704" lon="-0.53676">
        <ele>126.069946</ele>
        <time>2014-09-01T14:57:27Z</time>
      </trkpt>
      <trkpt lat="43.33654" lon="-0.53582">
        <ele>127.031372</ele>
        <time>2014-09-01T14:57:43Z</time>
      </trkpt>
      <trkpt lat="43.33585" lon="-0.53519">
        <ele>126.069946</ele>
        <time>2014-09-01T14:57:58Z</time>
      </trkpt>
      <trkpt lat="43.33514" lon="-0.53496">
        <ele>126.550659</ele>
        <time>2014-09-01T14:58:12Z</time>
      </trkpt>
      <trkpt lat="43.33423" lon="-0.53461">
        <ele>127.511963</ele>
        <time>2014-09-01T14:58:30Z</time>
      </trkpt>
      <trkpt lat="43.33387" lon="-0.5343">
        <ele>127.992554</ele>
        <time>2014-09-01T14:58:40Z</time>
      </trkpt>
      <trkpt lat="43.3336" lon="-0.53366">
        <ele>128.954102</ele>
        <time>2014-09-01T14:58:55Z</time>
      </trkpt>
      <trkpt lat="43.33361" lon="-0.53362">
        <ele>130.395996</ele>
        <time>2014-09-01T14:58:56Z</time>
      </trkpt>
      <trkpt lat="43.33406" lon="-0.53301">
        <ele>131.3573</ele>
        <time>2014-09-01T14:59:13Z</time>
      </trkpt>
      <trkpt lat="43.33453" lon="-0.5324">
        <ele>133.279907</ele>
        <time>2014-09-01T14:59:29Z</time>
      </trkpt>
      <trkpt lat="43.33476" lon="-0.53242">
        <ele>134.241211</ele>
        <time>2014-09-01T14:59:37Z</time>
      </trkpt>
      <trkpt lat="43.33477" lon="-0.53239">
        <ele>134.721924</ele>
        <time>2014-09-01T14:59:38Z</time>
      </trkpt>
      <trkpt lat="43.33498" lon="-0.53226">
        <ele>137.125244</ele>
        <time>2014-09-01T14:59:49Z</time>
      </trkpt>
      <trkpt lat="43.33523" lon="-0.5323">
        <ele>139.047852</ele>
        <time>2014-09-01T15:00:01Z</time>
      </trkpt>
      <trkpt lat="43.33548" lon="-0.53231">
        <ele>141.45105</ele>
        <time>2014-09-01T15:00:15Z</time>
      </trkpt>
      <trkpt lat="43.33573" lon="-0.53235">
        <ele>144.335205</ele>
        <time>2014-09-01T15:00:27Z</time>
      </trkpt>
      <trkpt lat="43.33591" lon="-0.53237">
        <ele>146.257813</ele>
        <time>2014-09-01T15:00:39Z</time>
      </trkpt>
      <trkpt lat="43.33592" lon="-0.53237">
        <ele>146.738403</ele>
        <time>2014-09-01T15:00:40Z</time>
      </trkpt>
      <trkpt lat="43.33595" lon="-0.53238">
        <ele>147.699707</ele>
        <time>2014-09-01T15:00:42Z</time>
      </trkpt>
      <trkpt lat="43.3361" lon="-0.53241">
        <ele>151.064209</ele>
        <time>2014-09-01T15:00:52Z</time>
      </trkpt>
      <trkpt lat="43.33632" lon="-0.53246">
        <ele>154.428955</ele>
        <time>2014-09-01T15:01:06Z</time>
      </trkpt>
      <trkpt lat="43.33655" lon="-0.53264">
        <ele>154.909546</ele>
        <time>2014-09-01T15:01:20Z</time>
      </trkpt>
      <trkpt lat="43.33691" lon="-0.53296">
        <ele>156.832153</ele>
        <time>2014-09-01T15:01:39Z</time>
      </trkpt>
      <trkpt lat="43.33713" lon="-0.53308">
        <ele>159.235474</ele>
        <time>2014-09-01T15:01:51Z</time>
      </trkpt>
      <trkpt lat="43.33722" lon="-0.53306">
        <ele>160.196899</ele>
        <time>2014-09-01T15:01:56Z</time>
      </trkpt>
      <trkpt lat="43.33733" lon="-0.53301">
        <ele>162.600098</ele>
        <time>2014-09-01T15:02:02Z</time>
      </trkpt>
      <trkpt lat="43.33761" lon="-0.53301">
        <ele>164.522705</ele>
        <time>2014-09-01T15:02:18Z</time>
      </trkpt>
      <trkpt lat="43.33775" lon="-0.53305">
        <ele>165.964722</ele>
        <time>2014-09-01T15:02:28Z</time>
      </trkpt>
      <trkpt lat="43.33782" lon="-0.53307">
        <ele>165.484131</ele>
        <time>2014-09-01T15:02:32Z</time>
      </trkpt>
      <trkpt lat="43.338" lon="-0.53307">
        <ele>168.848755</ele>
        <time>2014-09-01T15:02:43Z</time>
      </trkpt>
      <trkpt lat="43.33814" lon="-0.53302">
        <ele>171.252075</ele>
        <time>2014-09-01T15:02:51Z</time>
      </trkpt>
      <trkpt lat="43.33836" lon="-0.53301">
        <ele>173.655273</ele>
        <time>2014-09-01T15:03:04Z</time>
      </trkpt>
      <trkpt lat="43.33855" lon="-0.53299">
        <ele>176.058594</ele>
        <time>2014-09-01T15:03:15Z</time>
      </trkpt>
      <trkpt lat="43.33861" lon="-0.533">
        <ele>177.02002</ele>
        <time>2014-09-01T15:03:19Z</time>
      </trkpt>
      <trkpt lat="43.33887" lon="-0.53304">
        <ele>178.461914</ele>
        <time>2014-09-01T15:03:32Z</time>
      </trkpt>
      <trkpt lat="43.33891" lon="-0.53304">
        <ele>179.423218</ele>
        <time>2014-09-01T15:03:34Z</time>
      </trkpt>
      <trkpt lat="43.33898" lon="-0.53306">
        <ele>179.903809</ele>
        <time>2014-09-01T15:03:38Z</time>
      </trkpt>
      <trkpt lat="43.33924" lon="-0.53317">
        <ele>181.345825</ele>
        <time>2014-09-01T15:03:50Z</time>
      </trkpt>
      <trkpt lat="43.33948" lon="-0.53314">
        <ele>183.749023</ele>
        <time>2014-09-01T15:04:02Z</time>
      </trkpt>
      <trkpt lat="43.3395" lon="-0.53313">
        <ele>183.749023</ele>
        <time>2014-09-01T15:04:03Z</time>
      </trkpt>
      <trkpt lat="43.33973" lon="-0.53303">
        <ele>186.152466</ele>
        <time>2014-09-01T15:04:14Z</time>
      </trkpt>
      <trkpt lat="43.34" lon="-0.5331">
        <ele>188.555786</ele>
        <time>2014-09-01T15:04:29Z</time>
      </trkpt>
      <trkpt lat="43.34022" lon="-0.53309">
        <ele>189.997681</ele>
        <time>2014-09-01T15:04:42Z</time>
      </trkpt>
      <trkpt lat="43.34045" lon="-0.53301">
        <ele>192.881714</ele>
        <time>2014-09-01T15:04:54Z</time>
      </trkpt>
      <trkpt lat="43.34051" lon="-0.53296">
        <ele>193.362305</ele>
        <time>2014-09-01T15:04:57Z</time>
      </trkpt>
      <trkpt lat="43.34067" lon="-0.53275">
        <ele>194.32373</ele>
        <time>2014-09-01T15:05:10Z</time>
      </trkpt>
      <trkpt lat="43.34072" lon="-0.53271">
        <ele>195.765625</ele>
        <time>2014-09-01T15:05:15Z</time>
      </trkpt>
      <trkpt lat="43.34092" lon="-0.53254">
        <ele>199.130127</ele>
        <time>2014-09-01T15:05:29Z</time>
      </trkpt>
      <trkpt lat="43.34103" lon="-0.53245">
        <ele>200.091675</ele>
        <time>2014-09-01T15:05:36Z</time>
      </trkpt>
      <trkpt lat="43.34119" lon="-0.53239">
        <ele>203.93689</ele>
        <time>2014-09-01T15:05:48Z</time>
      </trkpt>
      <trkpt lat="43.3413" lon="-0.53242">
        <ele>205.859497</ele>
        <time>2014-09-01T15:05:55Z</time>
      </trkpt>
      <trkpt lat="43.34141" lon="-0.53255">
        <ele>206.820679</ele>
        <time>2014-09-01T15:06:05Z</time>
      </trkpt>
      <trkpt lat="43.34145" lon="-0.53257">
        <ele>207.301392</ele>
        <time>2014-09-01T15:06:08Z</time>
      </trkpt>
      <trkpt lat="43.34153" lon="-0.53236">
        <ele>209.224121</ele>
        <time>2014-09-01T15:06:20Z</time>
      </trkpt>
      <trkpt lat="43.34155" lon="-0.53223">
        <ele>210.185425</ele>
        <time>2014-09-01T15:06:25Z</time>
      </trkpt>
      <trkpt lat="43.3416" lon="-0.53212">
        <ele>211.146729</ele>
        <time>2014-09-01T15:06:30Z</time>
      </trkpt>
      <trkpt lat="43.34168" lon="-0.53183">
        <ele>213.550049</ele>
        <time>2014-09-01T15:06:42Z</time>
      </trkpt>
      <trkpt lat="43.34186" lon="-0.53169">
        <ele>214.991943</ele>
        <time>2014-09-01T15:06:54Z</time>
      </trkpt>
      <trkpt lat="43.34203" lon="-0.53146">
        <ele>214.03064</ele>
        <time>2014-09-01T15:07:05Z</time>
      </trkpt>
      <trkpt lat="43.34226" lon="-0.5311">
        <ele>213.550049</ele>
        <time>2014-09-01T15:07:14Z</time>
      </trkpt>
      <trkpt lat="43.3425" lon="-0.53067">
        <ele>213.069336</ele>
        <time>2014-09-01T15:07:24Z</time>
      </trkpt>
      <trkpt lat="43.34253" lon="-0.53055">
        <ele>213.069336</ele>
        <time>2014-09-01T15:07:26Z</time>
      </trkpt>
      <trkpt lat="43.34273" lon="-0.5302">
        <ele>216.43396</ele>
        <time>2014-09-01T15:07:35Z</time>
      </trkpt>
      <trkpt lat="43.34274" lon="-0.53018">
        <ele>215.953247</ele>
        <time>2014-09-01T15:07:36Z</time>
      </trkpt>
      <trkpt lat="43.34315" lon="-0.52993">
        <ele>213.069336</ele>
        <time>2014-09-01T15:07:47Z</time>
      </trkpt>
      <trkpt lat="43.34326" lon="-0.52988">
        <ele>213.069336</ele>
        <time>2014-09-01T15:07:49Z</time>
      </trkpt>
      <trkpt lat="43.34363" lon="-0.53001">
        <ele>212.588623</ele>
        <time>2014-09-01T15:07:57Z</time>
      </trkpt>
      <trkpt lat="43.34398" lon="-0.53035">
        <ele>213.550049</ele>
        <time>2014-09-01T15:08:05Z</time>
      </trkpt>
      <trkpt lat="43.34423" lon="-0.53071">
        <ele>215.472656</ele>
        <time>2014-09-01T15:08:13Z</time>
      </trkpt>
      <trkpt lat="43.34425" lon="-0.53081">
        <ele>215.953247</ele>
        <time>2014-09-01T15:08:15Z</time>
      </trkpt>
      <trkpt lat="43.34426" lon="-0.53091">
        <ele>215.472656</ele>
        <time>2014-09-01T15:08:17Z</time>
      </trkpt>
      <trkpt lat="43.34428" lon="-0.53167">
        <ele>214.03064</ele>
        <time>2014-09-01T15:08:29Z</time>
      </trkpt>
      <trkpt lat="43.34434" lon="-0.53193">
        <ele>213.069336</ele>
        <time>2014-09-01T15:08:32Z</time>
      </trkpt>
      <trkpt lat="43.34448" lon="-0.53226">
        <ele>214.03064</ele>
        <time>2014-09-01T15:08:37Z</time>
      </trkpt>
      <trkpt lat="43.34456" lon="-0.53248">
        <ele>214.03064</ele>
        <time>2014-09-01T15:08:41Z</time>
      </trkpt>
      <trkpt lat="43.34469" lon="-0.5327">
        <ele>214.51123</ele>
        <time>2014-09-01T15:08:45Z</time>
      </trkpt>
      <trkpt lat="43.34477" lon="-0.5329">
        <ele>215.472656</ele>
        <time>2014-09-01T15:08:49Z</time>
      </trkpt>
      <trkpt lat="43.34481" lon="-0.53299">
        <ele>215.472656</ele>
        <time>2014-09-01T15:08:51Z</time>
      </trkpt>
      <trkpt lat="43.34494" lon="-0.53327">
        <ele>216.914673</ele>
        <time>2014-09-01T15:08:57Z</time>
      </trkpt>
      <trkpt lat="43.34494" lon="-0.53381">
        <ele>214.51123</ele>
        <time>2014-09-01T15:09:05Z</time>
      </trkpt>
      <trkpt lat="43.345" lon="-0.53411">
        <ele>212.588623</ele>
        <time>2014-09-01T15:09:08Z</time>
      </trkpt>
      <trkpt lat="43.34526" lon="-0.53462">
        <ele>211.627441</ele>
        <time>2014-09-01T15:09:14Z</time>
      </trkpt>
      <trkpt lat="43.34536" lon="-0.53482">
        <ele>212.108032</ele>
        <time>2014-09-01T15:09:17Z</time>
      </trkpt>
      <trkpt lat="43.34541" lon="-0.53543">
        <ele>212.108032</ele>
        <time>2014-09-01T15:09:27Z</time>
      </trkpt>
      <trkpt lat="43.34539" lon="-0.5356">
        <ele>212.588623</ele>
        <time>2014-09-01T15:09:29Z</time>
      </trkpt>
      <trkpt lat="43.34549" lon="-0.53629">
        <ele>215.472656</ele>
        <time>2014-09-01T15:09:42Z</time>
      </trkpt>
      <trkpt lat="43.3456" lon="-0.53645">
        <ele>216.914673</ele>
        <time>2014-09-01T15:09:49Z</time>
      </trkpt>
      <trkpt lat="43.34584" lon="-0.53644">
        <ele>217.875977</ele>
        <time>2014-09-01T15:10:02Z</time>
      </trkpt>
      <trkpt lat="43.34609" lon="-0.53622">
        <ele>216.43396</ele>
        <time>2014-09-01T15:10:10Z</time>
      </trkpt>
      <trkpt lat="43.34629" lon="-0.53585">
        <ele>214.991943</ele>
        <time>2014-09-01T15:10:15Z</time>
      </trkpt>
      <trkpt lat="43.34638" lon="-0.53569">
        <ele>214.03064</ele>
        <time>2014-09-01T15:10:17Z</time>
      </trkpt>
      <trkpt lat="43.34653" lon="-0.53518">
        <ele>211.627441</ele>
        <time>2014-09-01T15:10:21Z</time>
      </trkpt>
      <trkpt lat="43.34667" lon="-0.53473">
        <ele>209.224121</ele>
        <time>2014-09-01T15:10:25Z</time>
      </trkpt>
      <trkpt lat="43.34682" lon="-0.53438">
        <ele>206.820679</ele>
        <time>2014-09-01T15:10:28Z</time>
      </trkpt>
      <trkpt lat="43.34687" lon="-0.53417">
        <ele>206.340088</ele>
        <time>2014-09-01T15:10:30Z</time>
      </trkpt>
      <trkpt lat="43.34697" lon="-0.53384">
        <ele>204.41748</ele>
        <time>2014-09-01T15:10:33Z</time>
      </trkpt>
      <trkpt lat="43.34701" lon="-0.53361">
        <ele>204.41748</ele>
        <time>2014-09-01T15:10:35Z</time>
      </trkpt>
      <trkpt lat="43.34707" lon="-0.53317">
        <ele>202.975464</ele>
        <time>2014-09-01T15:10:39Z</time>
      </trkpt>
      <trkpt lat="43.34714" lon="-0.53283">
        <ele>202.014282</ele>
        <time>2014-09-01T15:10:43Z</time>
      </trkpt>
      <trkpt lat="43.3472" lon="-0.53253">
        <ele>202.494873</ele>
        <time>2014-09-01T15:10:47Z</time>
      </trkpt>
      <trkpt lat="43.34746" lon="-0.53223">
        <ele>201.533569</ele>
        <time>2014-09-01T15:10:53Z</time>
      </trkpt>
      <trkpt lat="43.34764" lon="-0.532">
        <ele>201.533569</ele>
        <time>2014-09-01T15:10:57Z</time>
      </trkpt>
      <trkpt lat="43.34789" lon="-0.53176">
        <ele>198.649536</ele>
        <time>2014-09-01T15:11:01Z</time>
      </trkpt>
      <trkpt lat="43.34816" lon="-0.53163">
        <ele>197.20752</ele>
        <time>2014-09-01T15:11:05Z</time>
      </trkpt>
      <trkpt lat="43.34876" lon="-0.53168">
        <ele>196.726929</ele>
        <time>2014-09-01T15:11:16Z</time>
      </trkpt>
      <trkpt lat="43.34906" lon="-0.53169">
        <ele>200.091675</ele>
        <time>2014-09-01T15:11:25Z</time>
      </trkpt>
      <trkpt lat="43.34909" lon="-0.53169">
        <ele>200.091675</ele>
        <time>2014-09-01T15:11:26Z</time>
      </trkpt>
      <trkpt lat="43.34932" lon="-0.53185">
        <ele>201.533569</ele>
        <time>2014-09-01T15:11:36Z</time>
      </trkpt>
      <trkpt lat="43.34953" lon="-0.53217">
        <ele>202.494873</ele>
        <time>2014-09-01T15:11:47Z</time>
      </trkpt>
      <trkpt lat="43.34968" lon="-0.53261">
        <ele>203.456177</ele>
        <time>2014-09-01T15:11:59Z</time>
      </trkpt>
      <trkpt lat="43.3497" lon="-0.53275">
        <ele>203.456177</ele>
        <time>2014-09-01T15:12:02Z</time>
      </trkpt>
      <trkpt lat="43.34979" lon="-0.53315">
        <ele>201.533569</ele>
        <time>2014-09-01T15:12:07Z</time>
      </trkpt>
      <trkpt lat="43.34988" lon="-0.5334">
        <ele>200.091675</ele>
        <time>2014-09-01T15:12:10Z</time>
      </trkpt>
      <trkpt lat="43.34998" lon="-0.5337">
        <ele>199.61084</ele>
        <time>2014-09-01T15:12:14Z</time>
      </trkpt>
      <trkpt lat="43.35006" lon="-0.53486">
        <ele>197.20752</ele>
        <time>2014-09-01T15:12:27Z</time>
      </trkpt>
      <trkpt lat="43.35009" lon="-0.53622">
        <ele>196.246338</ele>
        <time>2014-09-01T15:12:43Z</time>
      </trkpt>
      <trkpt lat="43.35021" lon="-0.53666">
        <ele>194.32373</ele>
        <time>2014-09-01T15:12:48Z</time>
      </trkpt>
      <trkpt lat="43.3505" lon="-0.53761">
        <ele>193.843018</ele>
        <time>2014-09-01T15:13:01Z</time>
      </trkpt>
      <trkpt lat="43.3506" lon="-0.53806">
        <ele>197.20752</ele>
        <time>2014-09-01T15:13:10Z</time>
      </trkpt>
      <trkpt lat="43.35067" lon="-0.5383">
        <ele>198.168945</ele>
        <time>2014-09-01T15:13:16Z</time>
      </trkpt>
      <trkpt lat="43.35073" lon="-0.53851">
        <ele>198.168945</ele>
        <time>2014-09-01T15:13:21Z</time>
      </trkpt>
      <trkpt lat="43.3507" lon="-0.53912">
        <ele>199.61084</ele>
        <time>2014-09-01T15:13:34Z</time>
      </trkpt>
      <trkpt lat="43.35069" lon="-0.53924">
        <ele>199.61084</ele>
        <time>2014-09-01T15:13:36Z</time>
      </trkpt>
      <trkpt lat="43.3507" lon="-0.53937">
        <ele>199.130127</ele>
        <time>2014-09-01T15:13:38Z</time>
      </trkpt>
      <trkpt lat="43.35084" lon="-0.53972">
        <ele>200.572266</ele>
        <time>2014-09-01T15:13:46Z</time>
      </trkpt>
      <trkpt lat="43.35104" lon="-0.54016">
        <ele>202.014282</ele>
        <time>2014-09-01T15:13:58Z</time>
      </trkpt>
      <trkpt lat="43.3513" lon="-0.54027">
        <ele>201.052856</ele>
        <time>2014-09-01T15:14:08Z</time>
      </trkpt>
      <trkpt lat="43.3517" lon="-0.5405">
        <ele>201.052856</ele>
        <time>2014-09-01T15:14:20Z</time>
      </trkpt>
      <trkpt lat="43.35183" lon="-0.54061">
        <ele>199.61084</ele>
        <time>2014-09-01T15:14:23Z</time>
      </trkpt>
      <trkpt lat="43.35188" lon="-0.54095">
        <ele>196.246338</ele>
        <time>2014-09-01T15:14:28Z</time>
      </trkpt>
      <trkpt lat="43.35186" lon="-0.54102">
        <ele>195.765625</ele>
        <time>2014-09-01T15:14:29Z</time>
      </trkpt>
      <trkpt lat="43.3518" lon="-0.54118">
        <ele>194.32373</ele>
        <time>2014-09-01T15:14:31Z</time>
      </trkpt>
      <trkpt lat="43.35171" lon="-0.54163">
        <ele>191.439575</ele>
        <time>2014-09-01T15:14:36Z</time>
      </trkpt>
      <trkpt lat="43.35172" lon="-0.54188">
        <ele>187.59436</ele>
        <time>2014-09-01T15:14:39Z</time>
      </trkpt>
      <trkpt lat="43.35174" lon="-0.54197">
        <ele>186.633179</ele>
        <time>2014-09-01T15:14:40Z</time>
      </trkpt>
      <trkpt lat="43.35187" lon="-0.54233">
        <ele>185.671753</ele>
        <time>2014-09-01T15:14:44Z</time>
      </trkpt>
      <trkpt lat="43.35195" lon="-0.54276">
        <ele>182.787842</ele>
        <time>2014-09-01T15:14:48Z</time>
      </trkpt>
      <trkpt lat="43.35201" lon="-0.54296">
        <ele>182.307129</ele>
        <time>2014-09-01T15:14:50Z</time>
      </trkpt>
      <trkpt lat="43.35193" lon="-0.54355">
        <ele>182.307129</ele>
        <time>2014-09-01T15:14:57Z</time>
      </trkpt>
      <trkpt lat="43.35191" lon="-0.54363">
        <ele>182.307129</ele>
        <time>2014-09-01T15:14:58Z</time>
      </trkpt>
      <trkpt lat="43.35169" lon="-0.54473">
        <ele>181.826416</ele>
        <time>2014-09-01T15:15:14Z</time>
      </trkpt>
      <trkpt lat="43.35166" lon="-0.54497">
        <ele>180.384521</ele>
        <time>2014-09-01T15:15:17Z</time>
      </trkpt>
      <trkpt lat="43.35167" lon="-0.54529">
        <ele>176.539307</ele>
        <time>2014-09-01T15:15:20Z</time>
      </trkpt>
      <trkpt lat="43.35168" lon="-0.54562">
        <ele>173.174683</ele>
        <time>2014-09-01T15:15:23Z</time>
      </trkpt>
      <trkpt lat="43.35169" lon="-0.54574">
        <ele>172.69397</ele>
        <time>2014-09-01T15:15:24Z</time>
      </trkpt>
      <trkpt lat="43.35166" lon="-0.54615">
        <ele>171.252075</ele>
        <time>2014-09-01T15:15:28Z</time>
      </trkpt>
      <trkpt lat="43.35143" lon="-0.54632">
        <ele>169.329468</ele>
        <time>2014-09-01T15:15:32Z</time>
      </trkpt>
      <trkpt lat="43.35103" lon="-0.54656">
        <ele>165.003418</ele>
        <time>2014-09-01T15:15:38Z</time>
      </trkpt>
      <trkpt lat="43.35088" lon="-0.54653">
        <ele>163.561523</ele>
        <time>2014-09-01T15:15:40Z</time>
      </trkpt>
      <trkpt lat="43.35042" lon="-0.54646">
        <ele>159.235474</ele>
        <time>2014-09-01T15:15:45Z</time>
      </trkpt>
      <trkpt lat="43.35007" lon="-0.54638">
        <ele>155.870972</ele>
        <time>2014-09-01T15:15:49Z</time>
      </trkpt>
      <trkpt lat="43.34991" lon="-0.54634">
        <ele>152.986938</ele>
        <time>2014-09-01T15:15:51Z</time>
      </trkpt>
      <trkpt lat="43.34977" lon="-0.54631">
        <ele>149.622314</ele>
        <time>2014-09-01T15:15:53Z</time>
      </trkpt>
      <trkpt lat="43.34947" lon="-0.54635">
        <ele>145.7771</ele>
        <time>2014-09-01T15:15:57Z</time>
      </trkpt>
      <trkpt lat="43.34935" lon="-0.54646">
        <ele>144.815796</ele>
        <time>2014-09-01T15:15:59Z</time>
      </trkpt>
      <trkpt lat="43.34926" lon="-0.54664">
        <ele>142.412476</ele>
        <time>2014-09-01T15:16:01Z</time>
      </trkpt>
      <trkpt lat="43.34914" lon="-0.54696">
        <ele>140.970459</ele>
        <time>2014-09-01T15:16:04Z</time>
      </trkpt>
      <trkpt lat="43.34902" lon="-0.54728">
        <ele>140.009155</ele>
        <time>2014-09-01T15:16:07Z</time>
      </trkpt>
      <trkpt lat="43.34872" lon="-0.54771">
        <ele>137.605835</ele>
        <time>2014-09-01T15:16:12Z</time>
      </trkpt>
      <trkpt lat="43.34851" lon="-0.54788">
        <ele>133.279907</ele>
        <time>2014-09-01T15:16:15Z</time>
      </trkpt>
      <trkpt lat="43.34826" lon="-0.54852">
        <ele>130.395996</ele>
        <time>2014-09-01T15:16:23Z</time>
      </trkpt>
      <trkpt lat="43.34859" lon="-0.54892">
        <ele>130.876709</ele>
        <time>2014-09-01T15:16:31Z</time>
      </trkpt>
      <trkpt lat="43.34869" lon="-0.54893">
        <ele>131.3573</ele>
        <time>2014-09-01T15:16:33Z</time>
      </trkpt>
      <trkpt lat="43.3489" lon="-0.54896">
        <ele>131.3573</ele>
        <time>2014-09-01T15:16:37Z</time>
      </trkpt>
      <trkpt lat="43.34922" lon="-0.5491">
        <ele>131.3573</ele>
        <time>2014-09-01T15:16:44Z</time>
      </trkpt>
      <trkpt lat="43.3494" lon="-0.54923">
        <ele>130.876709</ele>
        <time>2014-09-01T15:16:48Z</time>
      </trkpt>
      <trkpt lat="43.34979" lon="-0.5499">
        <ele>130.395996</ele>
        <time>2014-09-01T15:16:58Z</time>
      </trkpt>
      <trkpt lat="43.35041" lon="-0.55069">
        <ele>129.915283</ele>
        <time>2014-09-01T15:17:12Z</time>
      </trkpt>
      <trkpt lat="43.35076" lon="-0.5509">
        <ele>130.395996</ele>
        <time>2014-09-01T15:17:19Z</time>
      </trkpt>
      <trkpt lat="43.35102" lon="-0.55103">
        <ele>130.395996</ele>
        <time>2014-09-01T15:17:24Z</time>
      </trkpt>
      <trkpt lat="43.35152" lon="-0.55125">
        <ele>130.876709</ele>
        <time>2014-09-01T15:17:34Z</time>
      </trkpt>
      <trkpt lat="43.35168" lon="-0.55143">
        <ele>130.395996</ele>
        <time>2014-09-01T15:17:38Z</time>
      </trkpt>
      <trkpt lat="43.35178" lon="-0.5516">
        <ele>130.395996</ele>
        <time>2014-09-01T15:17:41Z</time>
      </trkpt>
      <trkpt lat="43.35207" lon="-0.55207">
        <ele>129.434692</ele>
        <time>2014-09-01T15:17:48Z</time>
      </trkpt>
      <trkpt lat="43.35226" lon="-0.55255">
        <ele>128.954102</ele>
        <time>2014-09-01T15:17:54Z</time>
      </trkpt>
      <trkpt lat="43.35228" lon="-0.55324">
        <ele>127.511963</ele>
        <time>2014-09-01T15:18:02Z</time>
      </trkpt>
      <trkpt lat="43.3523" lon="-0.55372">
        <ele>125.589355</ele>
        <time>2014-09-01T15:18:08Z</time>
      </trkpt>
      <trkpt lat="43.35216" lon="-0.55383">
        <ele>125.108765</ele>
        <time>2014-09-01T15:18:11Z</time>
      </trkpt>
      <trkpt lat="43.35203" lon="-0.55385">
        <ele>125.108765</ele>
        <time>2014-09-01T15:18:13Z</time>
      </trkpt>
      <trkpt lat="43.3517" lon="-0.55371">
        <ele>124.628052</ele>
        <time>2014-09-01T15:18:19Z</time>
      </trkpt>
      <trkpt lat="43.35074" lon="-0.55276">
        <ele>124.628052</ele>
        <time>2014-09-01T15:18:40Z</time>
      </trkpt>
      <trkpt lat="43.35046" lon="-0.55287">
        <ele>123.666748</ele>
        <time>2014-09-01T15:18:47Z</time>
      </trkpt>
      <trkpt lat="43.34991" lon="-0.55431">
        <ele>123.186157</ele>
        <time>2014-09-01T15:19:08Z</time>
      </trkpt>
      <trkpt lat="43.34983" lon="-0.55451">
        <ele>123.186157</ele>
        <time>2014-09-01T15:19:11Z</time>
      </trkpt>
      <trkpt lat="43.34984" lon="-0.55481">
        <ele>123.666748</ele>
        <time>2014-09-01T15:19:15Z</time>
      </trkpt>
      <trkpt lat="43.35006" lon="-0.55565">
        <ele>123.666748</ele>
        <time>2014-09-01T15:19:27Z</time>
      </trkpt>
      <trkpt lat="43.34997" lon="-0.55604">
        <ele>123.186157</ele>
        <time>2014-09-01T15:19:33Z</time>
      </trkpt>
      <trkpt lat="43.34987" lon="-0.5562">
        <ele>123.186157</ele>
        <time>2014-09-01T15:19:36Z</time>
      </trkpt>
      <trkpt lat="43.34979" lon="-0.55629">
        <ele>123.186157</ele>
        <time>2014-09-01T15:19:38Z</time>
      </trkpt>
      <trkpt lat="43.34969" lon="-0.55665">
        <ele>123.666748</ele>
        <time>2014-09-01T15:19:45Z</time>
      </trkpt>
      <trkpt lat="43.35014" lon="-0.55797">
        <ele>123.186157</ele>
        <time>2014-09-01T15:20:05Z</time>
      </trkpt>
      <trkpt lat="43.35074" lon="-0.55983">
        <ele>122.705444</ele>
        <time>2014-09-01T15:20:31Z</time>
      </trkpt>
      <trkpt lat="43.35107" lon="-0.56078">
        <ele>122.705444</ele>
        <time>2014-09-01T15:20:45Z</time>
      </trkpt>
      <trkpt lat="43.35124" lon="-0.56191">
        <ele>122.224731</ele>
        <time>2014-09-01T15:21:01Z</time>
      </trkpt>
      <trkpt lat="43.3512" lon="-0.56352">
        <ele>122.705444</ele>
        <time>2014-09-01T15:21:22Z</time>
      </trkpt>
      <trkpt lat="43.35119" lon="-0.56375">
        <ele>122.705444</ele>
        <time>2014-09-01T15:21:25Z</time>
      </trkpt>
      <trkpt lat="43.35124" lon="-0.56401">
        <ele>123.186157</ele>
        <time>2014-09-01T15:21:29Z</time>
      </trkpt>
      <trkpt lat="43.35144" lon="-0.56449">
        <ele>122.705444</ele>
        <time>2014-09-01T15:21:37Z</time>
      </trkpt>
      <trkpt lat="43.35187" lon="-0.56461">
        <ele>122.224731</ele>
        <time>2014-09-01T15:21:49Z</time>
      </trkpt>
      <trkpt lat="43.35248" lon="-0.56477">
        <ele>122.705444</ele>
        <time>2014-09-01T15:22:01Z</time>
      </trkpt>
      <trkpt lat="43.35356" lon="-0.56474">
        <ele>122.705444</ele>
        <time>2014-09-01T15:22:20Z</time>
      </trkpt>
      <trkpt lat="43.3544" lon="-0.56479">
        <ele>121.744141</ele>
        <time>2014-09-01T15:22:35Z</time>
      </trkpt>
      <trkpt lat="43.3545" lon="-0.56479">
        <ele>121.744141</ele>
        <time>2014-09-01T15:22:37Z</time>
      </trkpt>
      <trkpt lat="43.35472" lon="-0.56511">
        <ele>121.744141</ele>
        <time>2014-09-01T15:22:44Z</time>
      </trkpt>
      <trkpt lat="43.35495" lon="-0.56626">
        <ele>120.782837</ele>
        <time>2014-09-01T15:23:01Z</time>
      </trkpt>
      <trkpt lat="43.35505" lon="-0.56649">
        <ele>121.26355</ele>
        <time>2014-09-01T15:23:05Z</time>
      </trkpt>
      <trkpt lat="43.35513" lon="-0.56673">
        <ele>121.26355</ele>
        <time>2014-09-01T15:23:09Z</time>
      </trkpt>
      <trkpt lat="43.35529" lon="-0.56805">
        <ele>121.26355</ele>
        <time>2014-09-01T15:23:29Z</time>
      </trkpt>
      <trkpt lat="43.3553" lon="-0.56846">
        <ele>121.26355</ele>
        <time>2014-09-01T15:23:36Z</time>
      </trkpt>
      <trkpt lat="43.35542" lon="-0.56857">
        <ele>121.26355</ele>
        <time>2014-09-01T15:23:41Z</time>
      </trkpt>
      <trkpt lat="43.35599" lon="-0.56824">
        <ele>120.782837</ele>
        <time>2014-09-01T15:23:55Z</time>
      </trkpt>
      <trkpt lat="43.35682" lon="-0.56769">
        <ele>121.26355</ele>
        <time>2014-09-01T15:24:14Z</time>
      </trkpt>
      <trkpt lat="43.35695" lon="-0.56759">
        <ele>120.782837</ele>
        <time>2014-09-01T15:24:17Z</time>
      </trkpt>
      <trkpt lat="43.35718" lon="-0.56742">
        <ele>120.782837</ele>
        <time>2014-09-01T15:24:23Z</time>
      </trkpt>
      <trkpt lat="43.35722" lon="-0.56756">
        <ele>121.26355</ele>
        <time>2014-09-01T15:24:27Z</time>
      </trkpt>
      <trkpt lat="43.35695" lon="-0.56877">
        <ele>121.26355</ele>
        <time>2014-09-01T15:24:45Z</time>
      </trkpt>
      <trkpt lat="43.35676" lon="-0.56976">
        <ele>120.782837</ele>
        <time>2014-09-01T15:25:00Z</time>
      </trkpt>
      <trkpt lat="43.35677" lon="-0.57127">
        <ele>120.782837</ele>
        <time>2014-09-01T15:25:22Z</time>
      </trkpt>
      <trkpt lat="43.35717" lon="-0.57257">
        <ele>120.302124</ele>
        <time>2014-09-01T15:25:41Z</time>
      </trkpt>
      <trkpt lat="43.35751" lon="-0.57361">
        <ele>120.302124</ele>
        <time>2014-09-01T15:25:56Z</time>
      </trkpt>
      <trkpt lat="43.35756" lon="-0.57382">
        <ele>119.821411</ele>
        <time>2014-09-01T15:25:59Z</time>
      </trkpt>
      <trkpt lat="43.3579" lon="-0.5749">
        <ele>119.821411</ele>
        <time>2014-09-01T15:26:15Z</time>
      </trkpt>
      <trkpt lat="43.35811" lon="-0.57587">
        <ele>119.34082</ele>
        <time>2014-09-01T15:26:29Z</time>
      </trkpt>
      <trkpt lat="43.35816" lon="-0.57621">
        <ele>119.34082</ele>
        <time>2014-09-01T15:26:38Z</time>
      </trkpt>
      <trkpt lat="43.35797" lon="-0.57685">
        <ele>120.302124</ele>
        <time>2014-09-01T15:26:49Z</time>
      </trkpt>
      <trkpt lat="43.35758" lon="-0.57821">
        <ele>120.302124</ele>
        <time>2014-09-01T15:27:08Z</time>
      </trkpt>
      <trkpt lat="43.35717" lon="-0.57967">
        <ele>119.821411</ele>
        <time>2014-09-01T15:27:28Z</time>
      </trkpt>
      <trkpt lat="43.35662" lon="-0.58166">
        <ele>119.821411</ele>
        <time>2014-09-01T15:27:54Z</time>
      </trkpt>
      <trkpt lat="43.35661" lon="-0.58215">
        <ele>119.821411</ele>
        <time>2014-09-01T15:28:00Z</time>
      </trkpt>
      <trkpt lat="43.35673" lon="-0.58269">
        <ele>118.860107</ele>
        <time>2014-09-01T15:28:12Z</time>
      </trkpt>
      <trkpt lat="43.35673" lon="-0.5827">
        <ele>119.34082</ele>
        <time>2014-09-01T15:28:20Z</time>
      </trkpt>
      <trkpt lat="43.35666" lon="-0.58295">
        <ele>119.821411</ele>
        <time>2014-09-01T15:28:27Z</time>
      </trkpt>
      <trkpt lat="43.35636" lon="-0.58308">
        <ele>117.898804</ele>
        <time>2014-09-01T15:28:34Z</time>
      </trkpt>
      <trkpt lat="43.35626" lon="-0.58325">
        <ele>119.34082</ele>
        <time>2014-09-01T15:28:37Z</time>
      </trkpt>
      <trkpt lat="43.3562" lon="-0.5835">
        <ele>119.34082</ele>
        <time>2014-09-01T15:28:41Z</time>
      </trkpt>
      <trkpt lat="43.35613" lon="-0.58427">
        <ele>118.860107</ele>
        <time>2014-09-01T15:28:53Z</time>
      </trkpt>
      <trkpt lat="43.35607" lon="-0.58464">
        <ele>119.34082</ele>
        <time>2014-09-01T15:28:59Z</time>
      </trkpt>
      <trkpt lat="43.35576" lon="-0.58524">
        <ele>118.860107</ele>
        <time>2014-09-01T15:29:10Z</time>
      </trkpt>
      <trkpt lat="43.35575" lon="-0.5853">
        <ele>118.860107</ele>
        <time>2014-09-01T15:29:11Z</time>
      </trkpt>
      <trkpt lat="43.35568" lon="-0.58556">
        <ele>119.34082</ele>
        <time>2014-09-01T15:29:15Z</time>
      </trkpt>
      <trkpt lat="43.35568" lon="-0.5859">
        <ele>119.34082</ele>
        <time>2014-09-01T15:29:20Z</time>
      </trkpt>
      <trkpt lat="43.3557" lon="-0.58603">
        <ele>119.34082</ele>
        <time>2014-09-01T15:29:22Z</time>
      </trkpt>
      <trkpt lat="43.35581" lon="-0.58675">
        <ele>119.34082</ele>
        <time>2014-09-01T15:29:33Z</time>
      </trkpt>
      <trkpt lat="43.35584" lon="-0.58689">
        <ele>118.379395</ele>
        <time>2014-09-01T15:29:35Z</time>
      </trkpt>
      <trkpt lat="43.35586" lon="-0.58718">
        <ele>117.418213</ele>
        <time>2014-09-01T15:29:39Z</time>
      </trkpt>
      <trkpt lat="43.35591" lon="-0.58741">
        <ele>118.860107</ele>
        <time>2014-09-01T15:29:43Z</time>
      </trkpt>
      <trkpt lat="43.35596" lon="-0.58749">
        <ele>117.898804</ele>
        <time>2014-09-01T15:29:45Z</time>
      </trkpt>
      <trkpt lat="43.35603" lon="-0.58788">
        <ele>117.418213</ele>
        <time>2014-09-01T15:29:53Z</time>
      </trkpt>
      <trkpt lat="43.35602" lon="-0.58805">
        <ele>118.379395</ele>
        <time>2014-09-01T15:29:58Z</time>
      </trkpt>
      <trkpt lat="43.35616" lon="-0.58858">
        <ele>117.898804</ele>
        <time>2014-09-01T15:30:09Z</time>
      </trkpt>
      <trkpt lat="43.35637" lon="-0.58879">
        <ele>117.898804</ele>
        <time>2014-09-01T15:30:16Z</time>
      </trkpt>
      <trkpt lat="43.35669" lon="-0.58892">
        <ele>117.898804</ele>
        <time>2014-09-01T15:30:24Z</time>
      </trkpt>
      <trkpt lat="43.35676" lon="-0.58897">
        <ele>117.418213</ele>
        <time>2014-09-01T15:30:26Z</time>
      </trkpt>
      <trkpt lat="43.35724" lon="-0.58927">
        <ele>117.418213</ele>
        <time>2014-09-01T15:30:38Z</time>
      </trkpt>
      <trkpt lat="43.35729" lon="-0.5893">
        <ele>116.9375</ele>
        <time>2014-09-01T15:30:39Z</time>
      </trkpt>
      <trkpt lat="43.35752" lon="-0.58952">
        <ele>117.418213</ele>
        <time>2014-09-01T15:30:46Z</time>
      </trkpt>
      <trkpt lat="43.35765" lon="-0.58979">
        <ele>116.456787</ele>
        <time>2014-09-01T15:30:51Z</time>
      </trkpt>
      <trkpt lat="43.35766" lon="-0.5899">
        <ele>117.418213</ele>
        <time>2014-09-01T15:30:53Z</time>
      </trkpt>
      <trkpt lat="43.35766" lon="-0.59014">
        <ele>116.456787</ele>
        <time>2014-09-01T15:30:57Z</time>
      </trkpt>
      <trkpt lat="43.35769" lon="-0.59053">
        <ele>116.9375</ele>
        <time>2014-09-01T15:31:03Z</time>
      </trkpt>
      <trkpt lat="43.35774" lon="-0.59083">
        <ele>116.9375</ele>
        <time>2014-09-01T15:31:08Z</time>
      </trkpt>
      <trkpt lat="43.35779" lon="-0.59103">
        <ele>116.9375</ele>
        <time>2014-09-01T15:31:11Z</time>
      </trkpt>
      <trkpt lat="43.35793" lon="-0.59121">
        <ele>116.456787</ele>
        <time>2014-09-01T15:31:16Z</time>
      </trkpt>
      <trkpt lat="43.35816" lon="-0.59139">
        <ele>117.418213</ele>
        <time>2014-09-01T15:31:22Z</time>
      </trkpt>
      <trkpt lat="43.35821" lon="-0.59171">
        <ele>117.418213</ele>
        <time>2014-09-01T15:31:28Z</time>
      </trkpt>
      <trkpt lat="43.35817" lon="-0.59207">
        <ele>117.418213</ele>
        <time>2014-09-01T15:31:35Z</time>
      </trkpt>
      <trkpt lat="43.35797" lon="-0.59217">
        <ele>117.418213</ele>
        <time>2014-09-01T15:31:41Z</time>
      </trkpt>
      <trkpt lat="43.35744" lon="-0.59251">
        <ele>116.9375</ele>
        <time>2014-09-01T15:31:55Z</time>
      </trkpt>
      <trkpt lat="43.35699" lon="-0.59288">
        <ele>117.418213</ele>
        <time>2014-09-01T15:32:05Z</time>
      </trkpt>
      <trkpt lat="43.35627" lon="-0.59361">
        <ele>117.418213</ele>
        <time>2014-09-01T15:32:21Z</time>
      </trkpt>
      <trkpt lat="43.35613" lon="-0.59371">
        <ele>116.456787</ele>
        <time>2014-09-01T15:32:24Z</time>
      </trkpt>
      <trkpt lat="43.35595" lon="-0.59394">
        <ele>115.976196</ele>
        <time>2014-09-01T15:32:28Z</time>
      </trkpt>
      <trkpt lat="43.35559" lon="-0.59457">
        <ele>116.456787</ele>
        <time>2014-09-01T15:32:39Z</time>
      </trkpt>
      <trkpt lat="43.35497" lon="-0.59482">
        <ele>116.9375</ele>
        <time>2014-09-01T15:32:52Z</time>
      </trkpt>
      <trkpt lat="43.35462" lon="-0.59485">
        <ele>118.379395</ele>
        <time>2014-09-01T15:33:01Z</time>
      </trkpt>
      <trkpt lat="43.3546" lon="-0.59481">
        <ele>118.860107</ele>
        <time>2014-09-01T15:33:02Z</time>
      </trkpt>
      <trkpt lat="43.3544" lon="-0.59451">
        <ele>121.26355</ele>
        <time>2014-09-01T15:33:13Z</time>
      </trkpt>
      <trkpt lat="43.35422" lon="-0.59424">
        <ele>123.666748</ele>
        <time>2014-09-01T15:33:25Z</time>
      </trkpt>
      <trkpt lat="43.35411" lon="-0.59402">
        <ele>127.031372</ele>
        <time>2014-09-01T15:33:34Z</time>
      </trkpt>
      <trkpt lat="43.35394" lon="-0.59378">
        <ele>128.954102</ele>
        <time>2014-09-01T15:33:46Z</time>
      </trkpt>
      <trkpt lat="43.35362" lon="-0.59366">
        <ele>130.876709</ele>
        <time>2014-09-01T15:34:01Z</time>
      </trkpt>
      <trkpt lat="43.35316" lon="-0.59354">
        <ele>131.837891</ele>
        <time>2014-09-01T15:34:18Z</time>
      </trkpt>
      <trkpt lat="43.35312" lon="-0.59353">
        <ele>131.3573</ele>
        <time>2014-09-01T15:34:27Z</time>
      </trkpt>
      <trkpt lat="43.3531" lon="-0.59351">
        <ele>131.3573</ele>
        <time>2014-09-01T15:35:46Z</time>
      </trkpt>
      <trkpt lat="43.35311" lon="-0.59352">
        <ele>131.3573</ele>
        <time>2014-09-01T15:36:09Z</time>
      </trkpt>
      <trkpt lat="43.3531" lon="-0.59352">
        <ele>130.876709</ele>
        <time>2014-09-01T15:36:11Z</time>
      </trkpt>
      <trkpt lat="43.35277" lon="-0.59329">
        <ele>130.876709</ele>
        <time>2014-09-01T15:36:25Z</time>
      </trkpt>
      <trkpt lat="43.35236" lon="-0.59323">
        <ele>130.395996</ele>
        <time>2014-09-01T15:36:37Z</time>
      </trkpt>
      <trkpt lat="43.35197" lon="-0.59345">
        <ele>131.837891</ele>
        <time>2014-09-01T15:36:49Z</time>
      </trkpt>
      <trkpt lat="43.35121" lon="-0.59346">
        <ele>133.279907</ele>
        <time>2014-09-01T15:37:09Z</time>
      </trkpt>
      <trkpt lat="43.35045" lon="-0.59313">
        <ele>134.241211</ele>
        <time>2014-09-01T15:37:27Z</time>
      </trkpt>
      <trkpt lat="43.34931" lon="-0.59259">
        <ele>134.241211</ele>
        <time>2014-09-01T15:37:51Z</time>
      </trkpt>
      <trkpt lat="43.34845" lon="-0.59221">
        <ele>133.760498</ele>
        <time>2014-09-01T15:38:09Z</time>
      </trkpt>
      <trkpt lat="43.34799" lon="-0.59209">
        <ele>133.760498</ele>
        <time>2014-09-01T15:38:18Z</time>
      </trkpt>
      <trkpt lat="43.34788" lon="-0.59226">
        <ele>134.721924</ele>
        <time>2014-09-01T15:38:23Z</time>
      </trkpt>
      <trkpt lat="43.34762" lon="-0.59275">
        <ele>137.605835</ele>
        <time>2014-09-01T15:38:37Z</time>
      </trkpt>
      <trkpt lat="43.34723" lon="-0.59303">
        <ele>138.086548</ele>
        <time>2014-09-01T15:38:51Z</time>
      </trkpt>
      <trkpt lat="43.34712" lon="-0.59361">
        <ele>140.970459</ele>
        <time>2014-09-01T15:39:05Z</time>
      </trkpt>
      <trkpt lat="43.34708" lon="-0.59377">
        <ele>141.45105</ele>
        <time>2014-09-01T15:39:09Z</time>
      </trkpt>
      <trkpt lat="43.34696" lon="-0.59379">
        <ele>141.45105</ele>
        <time>2014-09-01T15:39:13Z</time>
      </trkpt>
      <trkpt lat="43.34659" lon="-0.59335">
        <ele>144.335205</ele>
        <time>2014-09-01T15:39:28Z</time>
      </trkpt>
      <trkpt lat="43.34611" lon="-0.5929">
        <ele>145.296387</ele>
        <time>2014-09-01T15:39:46Z</time>
      </trkpt>
      <trkpt lat="43.34552" lon="-0.59243">
        <ele>144.815796</ele>
        <time>2014-09-01T15:40:01Z</time>
      </trkpt>
      <trkpt lat="43.3446" lon="-0.59174">
        <ele>141.931763</ele>
        <time>2014-09-01T15:40:19Z</time>
      </trkpt>
      <trkpt lat="43.34429" lon="-0.59144">
        <ele>141.45105</ele>
        <time>2014-09-01T15:40:25Z</time>
      </trkpt>
      <trkpt lat="43.3441" lon="-0.59139">
        <ele>141.45105</ele>
        <time>2014-09-01T15:40:31Z</time>
      </trkpt>
      <trkpt lat="43.3438" lon="-0.59133">
        <ele>141.45105</ele>
        <time>2014-09-01T15:40:44Z</time>
      </trkpt>
      <trkpt lat="43.34313" lon="-0.59083">
        <ele>141.931763</ele>
        <time>2014-09-01T15:40:59Z</time>
      </trkpt>
      <trkpt lat="43.34204" lon="-0.59068">
        <ele>143.373657</ele>
        <time>2014-09-01T15:41:19Z</time>
      </trkpt>
      <trkpt lat="43.3415" lon="-0.59061">
        <ele>143.85437</ele>
        <time>2014-09-01T15:41:29Z</time>
      </trkpt>
      <trkpt lat="43.3402" lon="-0.59055">
        <ele>144.335205</ele>
        <time>2014-09-01T15:41:52Z</time>
      </trkpt>
      <trkpt lat="43.33941" lon="-0.59027">
        <ele>143.85437</ele>
        <time>2014-09-01T15:42:06Z</time>
      </trkpt>
      <trkpt lat="43.33866" lon="-0.58945">
        <ele>141.45105</ele>
        <time>2014-09-01T15:42:20Z</time>
      </trkpt>
      <trkpt lat="43.33833" lon="-0.58904">
        <ele>142.412476</ele>
        <time>2014-09-01T15:42:28Z</time>
      </trkpt>
      <trkpt lat="43.33813" lon="-0.58932">
        <ele>143.373657</ele>
        <time>2014-09-01T15:42:36Z</time>
      </trkpt>
      <trkpt lat="43.33802" lon="-0.58949">
        <ele>143.85437</ele>
        <time>2014-09-01T15:42:40Z</time>
      </trkpt>
      <trkpt lat="43.33755" lon="-0.5897">
        <ele>146.738403</ele>
        <time>2014-09-01T15:42:54Z</time>
      </trkpt>
      <trkpt lat="43.33721" lon="-0.5895">
        <ele>149.622314</ele>
        <time>2014-09-01T15:43:10Z</time>
      </trkpt>
      <trkpt lat="43.33694" lon="-0.58934">
        <ele>152.986938</ele>
        <time>2014-09-01T15:43:23Z</time>
      </trkpt>
      <trkpt lat="43.33664" lon="-0.58918">
        <ele>156.351563</ele>
        <time>2014-09-01T15:43:39Z</time>
      </trkpt>
      <trkpt lat="43.33626" lon="-0.58911">
        <ele>159.716187</ele>
        <time>2014-09-01T15:43:58Z</time>
      </trkpt>
      <trkpt lat="43.33598" lon="-0.58885">
        <ele>161.638916</ele>
        <time>2014-09-01T15:44:14Z</time>
      </trkpt>
      <trkpt lat="43.33562" lon="-0.58851">
        <ele>163.561523</ele>
        <time>2014-09-01T15:44:28Z</time>
      </trkpt>
      <trkpt lat="43.33544" lon="-0.58832">
        <ele>161.158203</ele>
        <time>2014-09-01T15:44:33Z</time>
      </trkpt>
      <trkpt lat="43.33504" lon="-0.58793">
        <ele>157.312866</ele>
        <time>2014-09-01T15:44:40Z</time>
      </trkpt>
      <trkpt lat="43.3342" lon="-0.58711">
        <ele>155.390259</ele>
        <time>2014-09-01T15:44:53Z</time>
      </trkpt>
      <trkpt lat="43.33408" lon="-0.58701">
        <ele>154.428955</ele>
        <time>2014-09-01T15:44:55Z</time>
      </trkpt>
      <trkpt lat="43.33393" lon="-0.58683">
        <ele>153.948364</ele>
        <time>2014-09-01T15:44:58Z</time>
      </trkpt>
      <trkpt lat="43.33354" lon="-0.5865">
        <ele>153.948364</ele>
        <time>2014-09-01T15:45:05Z</time>
      </trkpt>
      <trkpt lat="43.33315" lon="-0.58612">
        <ele>153.467651</ele>
        <time>2014-09-01T15:45:13Z</time>
      </trkpt>
      <trkpt lat="43.33304" lon="-0.58605">
        <ele>152.506348</ele>
        <time>2014-09-01T15:45:15Z</time>
      </trkpt>
      <trkpt lat="43.33282" lon="-0.58589">
        <ele>152.506348</ele>
        <time>2014-09-01T15:45:19Z</time>
      </trkpt>
      <trkpt lat="43.33258" lon="-0.58564">
        <ele>149.141602</ele>
        <time>2014-09-01T15:45:23Z</time>
      </trkpt>
      <trkpt lat="43.33237" lon="-0.58545">
        <ele>145.296387</ele>
        <time>2014-09-01T15:45:26Z</time>
      </trkpt>
      <trkpt lat="43.33221" lon="-0.58532">
        <ele>143.373657</ele>
        <time>2014-09-01T15:45:28Z</time>
      </trkpt>
      <trkpt lat="43.33188" lon="-0.58487">
        <ele>146.257813</ele>
        <time>2014-09-01T15:45:35Z</time>
      </trkpt>
      <trkpt lat="43.33176" lon="-0.58478">
        <ele>150.583618</ele>
        <time>2014-09-01T15:45:40Z</time>
      </trkpt>
      <trkpt lat="43.33174" lon="-0.58475">
        <ele>150.583618</ele>
        <time>2014-09-01T15:45:41Z</time>
      </trkpt>
      <trkpt lat="43.33134" lon="-0.5845">
        <ele>151.544922</ele>
        <time>2014-09-01T15:45:57Z</time>
      </trkpt>
      <trkpt lat="43.33086" lon="-0.58437">
        <ele>151.544922</ele>
        <time>2014-09-01T15:46:12Z</time>
      </trkpt>
      <trkpt lat="43.3307" lon="-0.58427">
        <ele>151.544922</ele>
        <time>2014-09-01T15:46:16Z</time>
      </trkpt>
      <trkpt lat="43.3305" lon="-0.58421">
        <ele>150.583618</ele>
        <time>2014-09-01T15:46:26Z</time>
      </trkpt>
      <trkpt lat="43.33052" lon="-0.58423">
        <ele>150.103027</ele>
        <time>2014-09-01T15:47:01Z</time>
      </trkpt>
      <trkpt lat="43.33051" lon="-0.58423">
        <ele>150.583618</ele>
        <time>2014-09-01T15:47:34Z</time>
      </trkpt>
      <trkpt lat="43.33043" lon="-0.58419">
        <ele>150.583618</ele>
        <time>2014-09-01T15:47:56Z</time>
      </trkpt>
      <trkpt lat="43.33007" lon="-0.58402">
        <ele>153.467651</ele>
        <time>2014-09-01T15:48:07Z</time>
      </trkpt>
      <trkpt lat="43.32998" lon="-0.58395">
        <ele>154.428955</ele>
        <time>2014-09-01T15:48:10Z</time>
      </trkpt>
      <trkpt lat="43.32953" lon="-0.58379">
        <ele>155.390259</ele>
        <time>2014-09-01T15:48:23Z</time>
      </trkpt>
      <trkpt lat="43.32903" lon="-0.58352">
        <ele>158.27417</ele>
        <time>2014-09-01T15:48:40Z</time>
      </trkpt>
      <trkpt lat="43.32869" lon="-0.5832">
        <ele>160.67749</ele>
        <time>2014-09-01T15:48:57Z</time>
      </trkpt>
      <trkpt lat="43.32824" lon="-0.58307">
        <ele>160.67749</ele>
        <time>2014-09-01T15:49:11Z</time>
      </trkpt>
      <trkpt lat="43.32796" lon="-0.58303">
        <ele>160.196899</ele>
        <time>2014-09-01T15:49:17Z</time>
      </trkpt>
      <trkpt lat="43.3278" lon="-0.58298">
        <ele>159.235474</ele>
        <time>2014-09-01T15:49:20Z</time>
      </trkpt>
      <trkpt lat="43.32746" lon="-0.58281">
        <ele>157.793579</ele>
        <time>2014-09-01T15:49:26Z</time>
      </trkpt>
      <trkpt lat="43.32672" lon="-0.58216">
        <ele>156.351563</ele>
        <time>2014-09-01T15:49:41Z</time>
      </trkpt>
      <trkpt lat="43.32652" lon="-0.58199">
        <ele>156.351563</ele>
        <time>2014-09-01T15:49:45Z</time>
      </trkpt>
      <trkpt lat="43.32636" lon="-0.58176">
        <ele>153.467651</ele>
        <time>2014-09-01T15:49:49Z</time>
      </trkpt>
      <trkpt lat="43.32629" lon="-0.5816">
        <ele>152.025757</ele>
        <time>2014-09-01T15:49:51Z</time>
      </trkpt>
      <trkpt lat="43.32623" lon="-0.58141">
        <ele>150.583618</ele>
        <time>2014-09-01T15:49:53Z</time>
      </trkpt>
      <trkpt lat="43.32585" lon="-0.58109">
        <ele>150.103027</ele>
        <time>2014-09-01T15:50:00Z</time>
      </trkpt>
      <trkpt lat="43.32542" lon="-0.58087">
        <ele>150.103027</ele>
        <time>2014-09-01T15:50:08Z</time>
      </trkpt>
      <trkpt lat="43.32531" lon="-0.5806">
        <ele>150.103027</ele>
        <time>2014-09-01T15:50:13Z</time>
      </trkpt>
      <trkpt lat="43.32515" lon="-0.58011">
        <ele>149.141602</ele>
        <time>2014-09-01T15:50:21Z</time>
      </trkpt>
      <trkpt lat="43.32491" lon="-0.57996">
        <ele>148.661011</ele>
        <time>2014-09-01T15:50:26Z</time>
      </trkpt>
      <trkpt lat="43.32474" lon="-0.57977">
        <ele>148.18042</ele>
        <time>2014-09-01T15:50:34Z</time>
      </trkpt>
      <trkpt lat="43.32464" lon="-0.57978">
        <ele>147.699707</ele>
        <time>2014-09-01T15:50:38Z</time>
      </trkpt>
      <trkpt lat="43.32399" lon="-0.57995">
        <ele>148.18042</ele>
        <time>2014-09-01T15:50:52Z</time>
      </trkpt>
      <trkpt lat="43.32322" lon="-0.57999">
        <ele>146.738403</ele>
        <time>2014-09-01T15:51:04Z</time>
      </trkpt>
      <trkpt lat="43.32298" lon="-0.57994">
        <ele>150.103027</ele>
        <time>2014-09-01T15:51:09Z</time>
      </trkpt>
      <trkpt lat="43.32293" lon="-0.57993">
        <ele>150.103027</ele>
        <time>2014-09-01T15:51:10Z</time>
      </trkpt>
      <trkpt lat="43.32245" lon="-0.57986">
        <ele>153.467651</ele>
        <time>2014-09-01T15:51:22Z</time>
      </trkpt>
      <trkpt lat="43.32242" lon="-0.57986">
        <ele>152.986938</ele>
        <time>2014-09-01T15:51:23Z</time>
      </trkpt>
      <trkpt lat="43.32234" lon="-0.58008">
        <ele>155.390259</ele>
        <time>2014-09-01T15:51:30Z</time>
      </trkpt>
      <trkpt lat="43.32232" lon="-0.58056">
        <ele>157.312866</ele>
        <time>2014-09-01T15:51:45Z</time>
      </trkpt>
      <trkpt lat="43.32219" lon="-0.5811">
        <ele>159.235474</ele>
        <time>2014-09-01T15:52:03Z</time>
      </trkpt>
      <trkpt lat="43.322" lon="-0.58154">
        <ele>161.158203</ele>
        <time>2014-09-01T15:52:18Z</time>
      </trkpt>
      <trkpt lat="43.32164" lon="-0.58189">
        <ele>163.561523</ele>
        <time>2014-09-01T15:52:35Z</time>
      </trkpt>
      <trkpt lat="43.3214" lon="-0.58219">
        <ele>166.445313</ele>
        <time>2014-09-01T15:52:48Z</time>
      </trkpt>
      <trkpt lat="43.32138" lon="-0.58222">
        <ele>166.926025</ele>
        <time>2014-09-01T15:52:49Z</time>
      </trkpt>
      <trkpt lat="43.32127" lon="-0.58217">
        <ele>167.887329</ele>
        <time>2014-09-01T15:52:55Z</time>
      </trkpt>
      <trkpt lat="43.32089" lon="-0.58199">
        <ele>167.406738</ele>
        <time>2014-09-01T15:53:09Z</time>
      </trkpt>
      <trkpt lat="43.32043" lon="-0.58182">
        <ele>165.484131</ele>
        <time>2014-09-01T15:53:18Z</time>
      </trkpt>
      <trkpt lat="43.32028" lon="-0.58177">
        <ele>165.484131</ele>
        <time>2014-09-01T15:53:21Z</time>
      </trkpt>
      <trkpt lat="43.31996" lon="-0.58154">
        <ele>165.964722</ele>
        <time>2014-09-01T15:53:29Z</time>
      </trkpt>
      <trkpt lat="43.3199" lon="-0.58146">
        <ele>166.445313</ele>
        <time>2014-09-01T15:53:31Z</time>
      </trkpt>
      <trkpt lat="43.31975" lon="-0.58127">
        <ele>166.926025</ele>
        <time>2014-09-01T15:53:36Z</time>
      </trkpt>
      <trkpt lat="43.31964" lon="-0.58109">
        <ele>165.484131</ele>
        <time>2014-09-01T15:53:43Z</time>
      </trkpt>
      <trkpt lat="43.31955" lon="-0.58117">
        <ele>166.445313</ele>
        <time>2014-09-01T15:53:52Z</time>
      </trkpt>
      <trkpt lat="43.31953" lon="-0.58119">
        <ele>166.445313</ele>
        <time>2014-09-01T15:54:06Z</time>
      </trkpt>
      <trkpt lat="43.31949" lon="-0.58123">
        <ele>166.926025</ele>
        <time>2014-09-01T15:54:10Z</time>
      </trkpt>
      <trkpt lat="43.31921" lon="-0.58154">
        <ele>169.810059</ele>
        <time>2014-09-01T15:54:25Z</time>
      </trkpt>
      <trkpt lat="43.31901" lon="-0.5818">
        <ele>173.174683</ele>
        <time>2014-09-01T15:54:36Z</time>
      </trkpt>
      <trkpt lat="43.31892" lon="-0.58211">
        <ele>176.058594</ele>
        <time>2014-09-01T15:54:46Z</time>
      </trkpt>
      <trkpt lat="43.31872" lon="-0.5826">
        <ele>176.539307</ele>
        <time>2014-09-01T15:55:02Z</time>
      </trkpt>
      <trkpt lat="43.31833" lon="-0.58347">
        <ele>173.174683</ele>
        <time>2014-09-01T15:55:16Z</time>
      </trkpt>
      <trkpt lat="43.31803" lon="-0.58398">
        <ele>169.329468</ele>
        <time>2014-09-01T15:55:22Z</time>
      </trkpt>
      <trkpt lat="43.3179" lon="-0.58419">
        <ele>168.368042</ele>
        <time>2014-09-01T15:55:24Z</time>
      </trkpt>
      <trkpt lat="43.31779" lon="-0.5844">
        <ele>168.368042</ele>
        <time>2014-09-01T15:55:26Z</time>
      </trkpt>
      <trkpt lat="43.31747" lon="-0.58473">
        <ele>167.887329</ele>
        <time>2014-09-01T15:55:31Z</time>
      </trkpt>
      <trkpt lat="43.3172" lon="-0.58506">
        <ele>170.290649</ele>
        <time>2014-09-01T15:55:40Z</time>
      </trkpt>
      <trkpt lat="43.31699" lon="-0.58519">
        <ele>175.09729</ele>
        <time>2014-09-01T15:55:51Z</time>
      </trkpt>
      <trkpt lat="43.31697" lon="-0.58519">
        <ele>175.09729</ele>
        <time>2014-09-01T15:55:52Z</time>
      </trkpt>
      <trkpt lat="43.31683" lon="-0.58521">
        <ele>177.50061</ele>
        <time>2014-09-01T15:56:01Z</time>
      </trkpt>
      <trkpt lat="43.31669" lon="-0.58522">
        <ele>180.384521</ele>
        <time>2014-09-01T15:56:11Z</time>
      </trkpt>
      <trkpt lat="43.3165" lon="-0.58524">
        <ele>183.749023</ele>
        <time>2014-09-01T15:56:25Z</time>
      </trkpt>
      <trkpt lat="43.31644" lon="-0.58525">
        <ele>185.671753</ele>
        <time>2014-09-01T15:56:29Z</time>
      </trkpt>
      <trkpt lat="43.31627" lon="-0.58527">
        <ele>188.555786</ele>
        <time>2014-09-01T15:56:43Z</time>
      </trkpt>
      <trkpt lat="43.31608" lon="-0.58532">
        <ele>191.439575</ele>
        <time>2014-09-01T15:56:59Z</time>
      </trkpt>
      <trkpt lat="43.31585" lon="-0.58541">
        <ele>195.284912</ele>
        <time>2014-09-01T15:57:17Z</time>
      </trkpt>
      <trkpt lat="43.31584" lon="-0.58542">
        <ele>194.804321</ele>
        <time>2014-09-01T15:57:18Z</time>
      </trkpt>
      <trkpt lat="43.31586" lon="-0.58578">
        <ele>198.168945</ele>
        <time>2014-09-01T15:57:36Z</time>
      </trkpt>
      <trkpt lat="43.31585" lon="-0.58633">
        <ele>199.61084</ele>
        <time>2014-09-01T15:57:52Z</time>
      </trkpt>
      <trkpt lat="43.31581" lon="-0.5865">
        <ele>200.572266</ele>
        <time>2014-09-01T15:57:58Z</time>
      </trkpt>
      <trkpt lat="43.31573" lon="-0.58655">
        <ele>200.572266</ele>
        <time>2014-09-01T15:58:09Z</time>
      </trkpt>
      <trkpt lat="43.31575" lon="-0.58653">
        <ele>200.091675</ele>
        <time>2014-09-01T15:58:36Z</time>
      </trkpt>
      <trkpt lat="43.31575" lon="-0.58652">
        <ele>200.572266</ele>
        <time>2014-09-01T15:58:53Z</time>
      </trkpt>
    </trkseg>
  </trk>
</gpx>